<?xml version="1.0" encoding="UTF-8" standalone="no" ?>
<gpx xmlns="http://www.topografix.com/GPX/1/1" xmlns:xsi="http://www.w3.org/2001/XMLSchema-instance" xsi:schemaLocation="http://www.topografix.com/GPX/1/1 http://www.topografix.com/GPX/1/1/gpx.xsd" version="1.1" creator="VisuGPX - https://www.visugpx.com">
  <metadata>
    <name>Orival enduro et  </name>
    <desc><![CDATA[Orival (76) circuit enduro et  ]]></desc>
  </metadata>
  <trk>
    <name><![CDATA[Enduro Orival et +]]></name>
    <trkseg>
      <trkpt lat="49.31828" lon="0.9945">
        <ele>20</ele>
        <time>2016-07-09T08:27:32Z</time>
      </trkpt>
      <trkpt lat="49.31838" lon="0.99428">
        <ele>19</ele>
        <time>2016-07-09T08:43:35Z</time>
      </trkpt>
      <trkpt lat="49.3184" lon="0.99428">
        <ele>19</ele>
        <time>2016-07-09T08:43:37Z</time>
      </trkpt>
      <trkpt lat="49.31858" lon="0.99413">
        <ele>18</ele>
        <time>2016-07-09T08:43:54Z</time>
      </trkpt>
      <trkpt lat="49.31873" lon="0.99405">
        <ele>18</ele>
        <time>2016-07-09T08:44:03Z</time>
      </trkpt>
      <trkpt lat="49.31888" lon="0.99415">
        <ele>19</ele>
        <time>2016-07-09T08:44:13Z</time>
      </trkpt>
      <trkpt lat="49.31903" lon="0.9942">
        <ele>21</ele>
        <time>2016-07-09T08:44:20Z</time>
      </trkpt>
      <trkpt lat="49.31918" lon="0.9943">
        <ele>22</ele>
        <time>2016-07-09T08:44:28Z</time>
      </trkpt>
      <trkpt lat="49.31933" lon="0.99438">
        <ele>23</ele>
        <time>2016-07-09T08:44:34Z</time>
      </trkpt>
      <trkpt lat="49.3195" lon="0.99448">
        <ele>24</ele>
        <time>2016-07-09T08:44:41Z</time>
      </trkpt>
      <trkpt lat="49.31973" lon="0.9946">
        <ele>25</ele>
        <time>2016-07-09T08:44:50Z</time>
      </trkpt>
      <trkpt lat="49.31988" lon="0.99468">
        <ele>26</ele>
        <time>2016-07-09T08:44:55Z</time>
      </trkpt>
      <trkpt lat="49.32015" lon="0.9948">
        <ele>27</ele>
        <time>2016-07-09T08:45:04Z</time>
      </trkpt>
      <trkpt lat="49.32033" lon="0.99488">
        <ele>27</ele>
        <time>2016-07-09T08:45:11Z</time>
      </trkpt>
      <trkpt lat="49.32048" lon="0.99498">
        <ele>30</ele>
        <time>2016-07-09T08:45:17Z</time>
      </trkpt>
      <trkpt lat="49.32063" lon="0.99505">
        <ele>31</ele>
        <time>2016-07-09T08:45:23Z</time>
      </trkpt>
      <trkpt lat="49.3208" lon="0.99515">
        <ele>32</ele>
        <time>2016-07-09T08:45:30Z</time>
      </trkpt>
      <trkpt lat="49.32093" lon="0.99525">
        <ele>32</ele>
        <time>2016-07-09T08:45:37Z</time>
      </trkpt>
      <trkpt lat="49.32103" lon="0.9954">
        <ele>35</ele>
        <time>2016-07-09T08:45:44Z</time>
      </trkpt>
      <trkpt lat="49.32115" lon="0.9955">
        <ele>46</ele>
        <time>2016-07-09T08:46:07Z</time>
      </trkpt>
      <trkpt lat="49.3213" lon="0.9956">
        <ele>48</ele>
        <time>2016-07-09T08:46:14Z</time>
      </trkpt>
      <trkpt lat="49.32145" lon="0.9957">
        <ele>48</ele>
        <time>2016-07-09T08:46:22Z</time>
      </trkpt>
      <trkpt lat="49.3216" lon="0.99578">
        <ele>48</ele>
        <time>2016-07-09T08:46:29Z</time>
      </trkpt>
      <trkpt lat="49.32175" lon="0.99585">
        <ele>47</ele>
        <time>2016-07-09T08:46:36Z</time>
      </trkpt>
      <trkpt lat="49.32188" lon="0.996">
        <ele>46</ele>
        <time>2016-07-09T08:46:41Z</time>
      </trkpt>
      <trkpt lat="49.32198" lon="0.99618">
        <ele>49</ele>
        <time>2016-07-09T08:46:48Z</time>
      </trkpt>
      <trkpt lat="49.32213" lon="0.99633">
        <ele>56</ele>
        <time>2016-07-09T08:47:45Z</time>
      </trkpt>
      <trkpt lat="49.32223" lon="0.99648">
        <ele>59</ele>
        <time>2016-07-09T08:47:56Z</time>
      </trkpt>
      <trkpt lat="49.32248" lon="0.99665">
        <ele>64</ele>
        <time>2016-07-09T08:48:45Z</time>
      </trkpt>
      <trkpt lat="49.32263" lon="0.99668">
        <ele>64</ele>
        <time>2016-07-09T08:48:51Z</time>
      </trkpt>
      <trkpt lat="49.32278" lon="0.99678">
        <ele>65</ele>
        <time>2016-07-09T08:48:57Z</time>
      </trkpt>
      <trkpt lat="49.32295" lon="0.99688">
        <ele>66</ele>
        <time>2016-07-09T08:49:05Z</time>
      </trkpt>
      <trkpt lat="49.32308" lon="0.997">
        <ele>66</ele>
        <time>2016-07-09T08:49:10Z</time>
      </trkpt>
      <trkpt lat="49.3232" lon="0.99718">
        <ele>67</ele>
        <time>2016-07-09T08:49:16Z</time>
      </trkpt>
      <trkpt lat="49.32333" lon="0.99728">
        <ele>66</ele>
        <time>2016-07-09T08:49:21Z</time>
      </trkpt>
      <trkpt lat="49.32343" lon="0.99743">
        <ele>66</ele>
        <time>2016-07-09T08:49:26Z</time>
      </trkpt>
      <trkpt lat="49.3235" lon="0.9976">
        <ele>68</ele>
        <time>2016-07-09T08:49:31Z</time>
      </trkpt>
      <trkpt lat="49.3236" lon="0.99775">
        <ele>68</ele>
        <time>2016-07-09T08:49:37Z</time>
      </trkpt>
      <trkpt lat="49.3237" lon="0.99793">
        <ele>72</ele>
        <time>2016-07-09T08:50:00Z</time>
      </trkpt>
      <trkpt lat="49.32378" lon="0.99813">
        <ele>72</ele>
        <time>2016-07-09T08:50:07Z</time>
      </trkpt>
      <trkpt lat="49.32383" lon="0.99835">
        <ele>73</ele>
        <time>2016-07-09T08:50:13Z</time>
      </trkpt>
      <trkpt lat="49.32388" lon="0.99855">
        <ele>72</ele>
        <time>2016-07-09T08:50:17Z</time>
      </trkpt>
      <trkpt lat="49.32398" lon="0.99885">
        <ele>73</ele>
        <time>2016-07-09T08:50:23Z</time>
      </trkpt>
      <trkpt lat="49.32405" lon="0.99903">
        <ele>75</ele>
        <time>2016-07-09T08:50:27Z</time>
      </trkpt>
      <trkpt lat="49.32413" lon="0.99923">
        <ele>74</ele>
        <time>2016-07-09T08:50:31Z</time>
      </trkpt>
      <trkpt lat="49.3242" lon="0.9994">
        <ele>73</ele>
        <time>2016-07-09T08:50:34Z</time>
      </trkpt>
      <trkpt lat="49.32425" lon="0.9996">
        <ele>75</ele>
        <time>2016-07-09T08:50:39Z</time>
      </trkpt>
      <trkpt lat="49.32428" lon="0.99983">
        <ele>77</ele>
        <time>2016-07-09T08:50:45Z</time>
      </trkpt>
      <trkpt lat="49.32435" lon="1">
        <ele>78</ele>
        <time>2016-07-09T08:50:50Z</time>
      </trkpt>
      <trkpt lat="49.32443" lon="1.00028">
        <ele>79</ele>
        <time>2016-07-09T08:50:56Z</time>
      </trkpt>
      <trkpt lat="49.32448" lon="1.00048">
        <ele>79</ele>
        <time>2016-07-09T08:51:00Z</time>
      </trkpt>
      <trkpt lat="49.32455" lon="1.00065">
        <ele>78</ele>
        <time>2016-07-09T08:51:05Z</time>
      </trkpt>
      <trkpt lat="49.32465" lon="1.00085">
        <ele>78</ele>
        <time>2016-07-09T08:51:10Z</time>
      </trkpt>
      <trkpt lat="49.3247" lon="1.00108">
        <ele>78</ele>
        <time>2016-07-09T08:51:16Z</time>
      </trkpt>
      <trkpt lat="49.3247" lon="1.00133">
        <ele>78</ele>
        <time>2016-07-09T08:51:23Z</time>
      </trkpt>
      <trkpt lat="49.32473" lon="1.00155">
        <ele>80</ele>
        <time>2016-07-09T08:51:30Z</time>
      </trkpt>
      <trkpt lat="49.32478" lon="1.00178">
        <ele>80</ele>
        <time>2016-07-09T08:51:49Z</time>
      </trkpt>
      <trkpt lat="49.32478" lon="1.00203">
        <ele>79</ele>
        <time>2016-07-09T08:51:53Z</time>
      </trkpt>
      <trkpt lat="49.3248" lon="1.00225">
        <ele>79</ele>
        <time>2016-07-09T08:51:56Z</time>
      </trkpt>
      <trkpt lat="49.32475" lon="1.00245">
        <ele>76</ele>
        <time>2016-07-09T08:52:05Z</time>
      </trkpt>
      <trkpt lat="49.3247" lon="1.00268">
        <ele>75</ele>
        <time>2016-07-09T08:52:11Z</time>
      </trkpt>
      <trkpt lat="49.32465" lon="1.00288">
        <ele>75</ele>
        <time>2016-07-09T08:52:16Z</time>
      </trkpt>
      <trkpt lat="49.32463" lon="1.00313">
        <ele>77</ele>
        <time>2016-07-09T08:52:22Z</time>
      </trkpt>
      <trkpt lat="49.32458" lon="1.00333">
        <ele>78</ele>
        <time>2016-07-09T08:52:27Z</time>
      </trkpt>
      <trkpt lat="49.32453" lon="1.0036">
        <ele>79</ele>
        <time>2016-07-09T08:52:35Z</time>
      </trkpt>
      <trkpt lat="49.32448" lon="1.0038">
        <ele>79</ele>
        <time>2016-07-09T08:52:40Z</time>
      </trkpt>
      <trkpt lat="49.32443" lon="1.004">
        <ele>80</ele>
        <time>2016-07-09T08:52:46Z</time>
      </trkpt>
      <trkpt lat="49.32435" lon="1.00418">
        <ele>80</ele>
        <time>2016-07-09T08:52:52Z</time>
      </trkpt>
      <trkpt lat="49.32428" lon="1.00435">
        <ele>81</ele>
        <time>2016-07-09T08:52:57Z</time>
      </trkpt>
      <trkpt lat="49.32418" lon="1.00455">
        <ele>80</ele>
        <time>2016-07-09T08:53:03Z</time>
      </trkpt>
      <trkpt lat="49.32408" lon="1.00475">
        <ele>82</ele>
        <time>2016-07-09T08:53:09Z</time>
      </trkpt>
      <trkpt lat="49.324" lon="1.00493">
        <ele>83</ele>
        <time>2016-07-09T08:53:14Z</time>
      </trkpt>
      <trkpt lat="49.32393" lon="1.00513">
        <ele>83</ele>
        <time>2016-07-09T08:53:19Z</time>
      </trkpt>
      <trkpt lat="49.3239" lon="1.00538">
        <ele>84</ele>
        <time>2016-07-09T08:53:25Z</time>
      </trkpt>
      <trkpt lat="49.32398" lon="1.00558">
        <ele>84</ele>
        <time>2016-07-09T08:53:30Z</time>
      </trkpt>
      <trkpt lat="49.32413" lon="1.00563">
        <ele>83</ele>
        <time>2016-07-09T08:53:35Z</time>
      </trkpt>
      <trkpt lat="49.32428" lon="1.00555">
        <ele>83</ele>
        <time>2016-07-09T08:53:43Z</time>
      </trkpt>
      <trkpt lat="49.3244" lon="1.00545">
        <ele>84</ele>
        <time>2016-07-09T08:53:49Z</time>
      </trkpt>
      <trkpt lat="49.32453" lon="1.00535">
        <ele>84</ele>
        <time>2016-07-09T08:53:55Z</time>
      </trkpt>
      <trkpt lat="49.32465" lon="1.00523">
        <ele>84</ele>
        <time>2016-07-09T08:54:00Z</time>
      </trkpt>
      <trkpt lat="49.32478" lon="1.0051">
        <ele>86</ele>
        <time>2016-07-09T08:54:06Z</time>
      </trkpt>
      <trkpt lat="49.32518" lon="1.00473">
        <ele>88</ele>
        <time>2016-07-09T08:54:49Z</time>
      </trkpt>
      <trkpt lat="49.32528" lon="1.00458">
        <ele>91</ele>
        <time>2016-07-09T08:54:56Z</time>
      </trkpt>
      <trkpt lat="49.32543" lon="1.00438">
        <ele>91</ele>
        <time>2016-07-09T08:55:04Z</time>
      </trkpt>
      <trkpt lat="49.32553" lon="1.00423">
        <ele>88</ele>
        <time>2016-07-09T08:55:08Z</time>
      </trkpt>
      <trkpt lat="49.3256" lon="1.00405">
        <ele>88</ele>
        <time>2016-07-09T08:55:14Z</time>
      </trkpt>
      <trkpt lat="49.32568" lon="1.00388">
        <ele>87</ele>
        <time>2016-07-09T08:55:19Z</time>
      </trkpt>
      <trkpt lat="49.32575" lon="1.0037">
        <ele>85</ele>
        <time>2016-07-09T08:55:24Z</time>
      </trkpt>
      <trkpt lat="49.32583" lon="1.0035">
        <ele>87</ele>
        <time>2016-07-09T08:55:30Z</time>
      </trkpt>
      <trkpt lat="49.32593" lon="1.00335">
        <ele>89</ele>
        <time>2016-07-09T08:55:36Z</time>
      </trkpt>
      <trkpt lat="49.32608" lon="1.0033">
        <ele>93</ele>
        <time>2016-07-09T08:55:44Z</time>
      </trkpt>
      <trkpt lat="49.32623" lon="1.00338">
        <ele>94</ele>
        <time>2016-07-09T08:55:49Z</time>
      </trkpt>
      <trkpt lat="49.32635" lon="1.0035">
        <ele>94</ele>
        <time>2016-07-09T08:55:55Z</time>
      </trkpt>
      <trkpt lat="49.32648" lon="1.0036">
        <ele>94</ele>
        <time>2016-07-09T08:56:01Z</time>
      </trkpt>
      <trkpt lat="49.3266" lon="1.0037">
        <ele>95</ele>
        <time>2016-07-09T08:56:06Z</time>
      </trkpt>
      <trkpt lat="49.32678" lon="1.00373">
        <ele>97</ele>
        <time>2016-07-09T08:56:15Z</time>
      </trkpt>
      <trkpt lat="49.32693" lon="1.00373">
        <ele>99</ele>
        <time>2016-07-09T08:56:21Z</time>
      </trkpt>
      <trkpt lat="49.32708" lon="1.00373">
        <ele>99</ele>
        <time>2016-07-09T08:56:26Z</time>
      </trkpt>
      <trkpt lat="49.32725" lon="1.00368">
        <ele>101</ele>
        <time>2016-07-09T08:56:34Z</time>
      </trkpt>
      <trkpt lat="49.3274" lon="1.00363">
        <ele>102</ele>
        <time>2016-07-09T08:56:40Z</time>
      </trkpt>
      <trkpt lat="49.32755" lon="1.00363">
        <ele>103</ele>
        <time>2016-07-09T08:56:46Z</time>
      </trkpt>
      <trkpt lat="49.3277" lon="1.0036">
        <ele>103</ele>
        <time>2016-07-09T08:56:53Z</time>
      </trkpt>
      <trkpt lat="49.32785" lon="1.0036">
        <ele>103</ele>
        <time>2016-07-09T08:56:59Z</time>
      </trkpt>
      <trkpt lat="49.328" lon="1.00363">
        <ele>104</ele>
        <time>2016-07-09T08:57:06Z</time>
      </trkpt>
      <trkpt lat="49.32815" lon="1.00365">
        <ele>105</ele>
        <time>2016-07-09T08:57:11Z</time>
      </trkpt>
      <trkpt lat="49.3283" lon="1.00373">
        <ele>106</ele>
        <time>2016-07-09T08:57:18Z</time>
      </trkpt>
      <trkpt lat="49.32845" lon="1.00383">
        <ele>107</ele>
        <time>2016-07-09T08:57:24Z</time>
      </trkpt>
      <trkpt lat="49.3286" lon="1.00393">
        <ele>107</ele>
        <time>2016-07-09T08:57:30Z</time>
      </trkpt>
      <trkpt lat="49.32875" lon="1.00408">
        <ele>107</ele>
        <time>2016-07-09T08:57:36Z</time>
      </trkpt>
      <trkpt lat="49.32888" lon="1.0042">
        <ele>107</ele>
        <time>2016-07-09T08:57:42Z</time>
      </trkpt>
      <trkpt lat="49.32898" lon="1.00435">
        <ele>107</ele>
        <time>2016-07-09T08:57:48Z</time>
      </trkpt>
      <trkpt lat="49.32908" lon="1.00453">
        <ele>104</ele>
        <time>2016-07-09T08:57:54Z</time>
      </trkpt>
      <trkpt lat="49.32915" lon="1.0047">
        <ele>104</ele>
        <time>2016-07-09T08:58:00Z</time>
      </trkpt>
      <trkpt lat="49.32918" lon="1.00495">
        <ele>105</ele>
        <time>2016-07-09T08:58:07Z</time>
      </trkpt>
      <trkpt lat="49.32915" lon="1.00523">
        <ele>105</ele>
        <time>2016-07-09T08:58:15Z</time>
      </trkpt>
      <trkpt lat="49.32918" lon="1.00545">
        <ele>105</ele>
        <time>2016-07-09T08:58:20Z</time>
      </trkpt>
      <trkpt lat="49.3292" lon="1.00573">
        <ele>108</ele>
        <time>2016-07-09T08:58:27Z</time>
      </trkpt>
      <trkpt lat="49.32928" lon="1.00593">
        <ele>111</ele>
        <time>2016-07-09T08:58:33Z</time>
      </trkpt>
      <trkpt lat="49.32935" lon="1.00613">
        <ele>114</ele>
        <time>2016-07-09T08:58:39Z</time>
      </trkpt>
      <trkpt lat="49.32943" lon="1.0063">
        <ele>116</ele>
        <time>2016-07-09T08:58:45Z</time>
      </trkpt>
      <trkpt lat="49.3295" lon="1.00648">
        <ele>118</ele>
        <time>2016-07-09T08:58:50Z</time>
      </trkpt>
      <trkpt lat="49.3296" lon="1.00663">
        <ele>119</ele>
        <time>2016-07-09T08:58:55Z</time>
      </trkpt>
      <trkpt lat="49.3297" lon="1.0068">
        <ele>121</ele>
        <time>2016-07-09T08:59:01Z</time>
      </trkpt>
      <trkpt lat="49.32983" lon="1.00698">
        <ele>122</ele>
        <time>2016-07-09T08:59:06Z</time>
      </trkpt>
      <trkpt lat="49.32995" lon="1.00715">
        <ele>123</ele>
        <time>2016-07-09T08:59:12Z</time>
      </trkpt>
      <trkpt lat="49.3301" lon="1.00723">
        <ele>124</ele>
        <time>2016-07-09T08:59:19Z</time>
      </trkpt>
      <trkpt lat="49.33023" lon="1.00738">
        <ele>124</ele>
        <time>2016-07-09T08:59:26Z</time>
      </trkpt>
      <trkpt lat="49.33033" lon="1.00763">
        <ele>125</ele>
        <time>2016-07-09T08:59:34Z</time>
      </trkpt>
      <trkpt lat="49.3304" lon="1.0078">
        <ele>127</ele>
        <time>2016-07-09T08:59:40Z</time>
      </trkpt>
      <trkpt lat="49.33048" lon="1.008">
        <ele>127</ele>
        <time>2016-07-09T08:59:46Z</time>
      </trkpt>
      <trkpt lat="49.33058" lon="1.00818">
        <ele>127</ele>
        <time>2016-07-09T08:59:52Z</time>
      </trkpt>
      <trkpt lat="49.33068" lon="1.00843">
        <ele>125</ele>
        <time>2016-07-09T08:59:59Z</time>
      </trkpt>
      <trkpt lat="49.33075" lon="1.00863">
        <ele>124</ele>
        <time>2016-07-09T09:00:04Z</time>
      </trkpt>
      <trkpt lat="49.33083" lon="1.0088">
        <ele>124</ele>
        <time>2016-07-09T09:00:09Z</time>
      </trkpt>
      <trkpt lat="49.33088" lon="1.009">
        <ele>124</ele>
        <time>2016-07-09T09:00:15Z</time>
      </trkpt>
      <trkpt lat="49.33093" lon="1.00923">
        <ele>126</ele>
        <time>2016-07-09T09:00:21Z</time>
      </trkpt>
      <trkpt lat="49.331" lon="1.0094">
        <ele>125</ele>
        <time>2016-07-09T09:00:25Z</time>
      </trkpt>
      <trkpt lat="49.33085" lon="1.00943">
        <ele>135</ele>
        <time>2016-07-09T09:02:18Z</time>
      </trkpt>
      <trkpt lat="49.33075" lon="1.00928">
        <ele>134</ele>
        <time>2016-07-09T09:02:24Z</time>
      </trkpt>
      <trkpt lat="49.3307" lon="1.00905">
        <ele>131</ele>
        <time>2016-07-09T09:02:30Z</time>
      </trkpt>
      <trkpt lat="49.33063" lon="1.00888">
        <ele>130</ele>
        <time>2016-07-09T09:02:34Z</time>
      </trkpt>
      <trkpt lat="49.33063" lon="1.00863">
        <ele>128</ele>
        <time>2016-07-09T09:02:40Z</time>
      </trkpt>
      <trkpt lat="49.33055" lon="1.0084">
        <ele>126</ele>
        <time>2016-07-09T09:02:45Z</time>
      </trkpt>
      <trkpt lat="49.33045" lon="1.00823">
        <ele>126</ele>
        <time>2016-07-09T09:02:49Z</time>
      </trkpt>
      <trkpt lat="49.33035" lon="1.00803">
        <ele>125</ele>
        <time>2016-07-09T09:02:54Z</time>
      </trkpt>
      <trkpt lat="49.33025" lon="1.00785">
        <ele>125</ele>
        <time>2016-07-09T09:02:58Z</time>
      </trkpt>
      <trkpt lat="49.33015" lon="1.0077">
        <ele>125</ele>
        <time>2016-07-09T09:03:01Z</time>
      </trkpt>
      <trkpt lat="49.33003" lon="1.00755">
        <ele>126</ele>
        <time>2016-07-09T09:03:04Z</time>
      </trkpt>
      <trkpt lat="49.32985" lon="1.0074">
        <ele>126</ele>
        <time>2016-07-09T09:03:09Z</time>
      </trkpt>
      <trkpt lat="49.3297" lon="1.00735">
        <ele>128</ele>
        <time>2016-07-09T09:03:13Z</time>
      </trkpt>
      <trkpt lat="49.32958" lon="1.0072">
        <ele>128</ele>
        <time>2016-07-09T09:03:17Z</time>
      </trkpt>
      <trkpt lat="49.32948" lon="1.00705">
        <ele>129</ele>
        <time>2016-07-09T09:03:20Z</time>
      </trkpt>
      <trkpt lat="49.32943" lon="1.00685">
        <ele>129</ele>
        <time>2016-07-09T09:03:23Z</time>
      </trkpt>
      <trkpt lat="49.32935" lon="1.00668">
        <ele>129</ele>
        <time>2016-07-09T09:03:26Z</time>
      </trkpt>
      <trkpt lat="49.3292" lon="1.00658">
        <ele>129</ele>
        <time>2016-07-09T09:03:30Z</time>
      </trkpt>
      <trkpt lat="49.3291" lon="1.00638">
        <ele>129</ele>
        <time>2016-07-09T09:03:34Z</time>
      </trkpt>
      <trkpt lat="49.32903" lon="1.0062">
        <ele>128</ele>
        <time>2016-07-09T09:03:38Z</time>
      </trkpt>
      <trkpt lat="49.32895" lon="1.006">
        <ele>128</ele>
        <time>2016-07-09T09:03:43Z</time>
      </trkpt>
      <trkpt lat="49.32885" lon="1.00583">
        <ele>126</ele>
        <time>2016-07-09T09:03:49Z</time>
      </trkpt>
      <trkpt lat="49.32883" lon="1.00558">
        <ele>123</ele>
        <time>2016-07-09T09:03:59Z</time>
      </trkpt>
      <trkpt lat="49.32888" lon="1.00538">
        <ele>121</ele>
        <time>2016-07-09T09:04:03Z</time>
      </trkpt>
      <trkpt lat="49.3289" lon="1.00513">
        <ele>119</ele>
        <time>2016-07-09T09:04:07Z</time>
      </trkpt>
      <trkpt lat="49.32885" lon="1.00485">
        <ele>117</ele>
        <time>2016-07-09T09:04:12Z</time>
      </trkpt>
      <trkpt lat="49.32875" lon="1.00468">
        <ele>116</ele>
        <time>2016-07-09T09:04:15Z</time>
      </trkpt>
      <trkpt lat="49.3287" lon="1.00448">
        <ele>116</ele>
        <time>2016-07-09T09:04:19Z</time>
      </trkpt>
      <trkpt lat="49.32865" lon="1.00413">
        <ele>113</ele>
        <time>2016-07-09T09:04:31Z</time>
      </trkpt>
      <trkpt lat="49.32853" lon="1.00398">
        <ele>110</ele>
        <time>2016-07-09T09:04:37Z</time>
      </trkpt>
      <trkpt lat="49.32838" lon="1.0039">
        <ele>109</ele>
        <time>2016-07-09T09:04:41Z</time>
      </trkpt>
      <trkpt lat="49.32813" lon="1.00375">
        <ele>108</ele>
        <time>2016-07-09T09:04:47Z</time>
      </trkpt>
      <trkpt lat="49.32798" lon="1.00373">
        <ele>108</ele>
        <time>2016-07-09T09:04:50Z</time>
      </trkpt>
      <trkpt lat="49.32783" lon="1.00368">
        <ele>108</ele>
        <time>2016-07-09T09:04:54Z</time>
      </trkpt>
      <trkpt lat="49.32768" lon="1.00368">
        <ele>108</ele>
        <time>2016-07-09T09:04:58Z</time>
      </trkpt>
      <trkpt lat="49.32748" lon="1.0037">
        <ele>108</ele>
        <time>2016-07-09T09:05:03Z</time>
      </trkpt>
      <trkpt lat="49.3273" lon="1.0037">
        <ele>107</ele>
        <time>2016-07-09T09:05:07Z</time>
      </trkpt>
      <trkpt lat="49.3271" lon="1.00368">
        <ele>107</ele>
        <time>2016-07-09T09:05:12Z</time>
      </trkpt>
      <trkpt lat="49.32698" lon="1.00378">
        <ele>107</ele>
        <time>2016-07-09T09:05:16Z</time>
      </trkpt>
      <trkpt lat="49.3268" lon="1.00378">
        <ele>107</ele>
        <time>2016-07-09T09:05:25Z</time>
      </trkpt>
      <trkpt lat="49.32663" lon="1.00378">
        <ele>107</ele>
        <time>2016-07-09T09:05:30Z</time>
      </trkpt>
      <trkpt lat="49.32648" lon="1.0038">
        <ele>107</ele>
        <time>2016-07-09T09:05:35Z</time>
      </trkpt>
      <trkpt lat="49.32635" lon="1.0037">
        <ele>105</ele>
        <time>2016-07-09T09:05:43Z</time>
      </trkpt>
      <trkpt lat="49.32623" lon="1.00355">
        <ele>103</ele>
        <time>2016-07-09T09:05:47Z</time>
      </trkpt>
      <trkpt lat="49.32605" lon="1.00345">
        <ele>102</ele>
        <time>2016-07-09T09:05:52Z</time>
      </trkpt>
      <trkpt lat="49.3259" lon="1.00358">
        <ele>97</ele>
        <time>2016-07-09T09:05:57Z</time>
      </trkpt>
      <trkpt lat="49.3258" lon="1.00375">
        <ele>94</ele>
        <time>2016-07-09T09:06:02Z</time>
      </trkpt>
      <trkpt lat="49.3257" lon="1.00395">
        <ele>92</ele>
        <time>2016-07-09T09:06:08Z</time>
      </trkpt>
      <trkpt lat="49.3256" lon="1.0041">
        <ele>92</ele>
        <time>2016-07-09T09:06:12Z</time>
      </trkpt>
      <trkpt lat="49.3255" lon="1.00428">
        <ele>91</ele>
        <time>2016-07-09T09:06:17Z</time>
      </trkpt>
      <trkpt lat="49.32535" lon="1.0045">
        <ele>91</ele>
        <time>2016-07-09T09:06:23Z</time>
      </trkpt>
      <trkpt lat="49.32525" lon="1.00465">
        <ele>90</ele>
        <time>2016-07-09T09:06:27Z</time>
      </trkpt>
      <trkpt lat="49.3251" lon="1.00473">
        <ele>90</ele>
        <time>2016-07-09T09:06:31Z</time>
      </trkpt>
      <trkpt lat="49.32498" lon="1.00485">
        <ele>89</ele>
        <time>2016-07-09T09:06:36Z</time>
      </trkpt>
      <trkpt lat="49.32483" lon="1.00438">
        <ele>85</ele>
        <time>2016-07-09T09:06:53Z</time>
      </trkpt>
      <trkpt lat="49.3247" lon="1.00403">
        <ele>84</ele>
        <time>2016-07-09T09:06:57Z</time>
      </trkpt>
      <trkpt lat="49.32455" lon="1.004">
        <ele>85</ele>
        <time>2016-07-09T09:07:03Z</time>
      </trkpt>
      <trkpt lat="49.32435" lon="1.00425">
        <ele>84</ele>
        <time>2016-07-09T09:07:20Z</time>
      </trkpt>
      <trkpt lat="49.32425" lon="1.0044">
        <ele>85</ele>
        <time>2016-07-09T09:07:25Z</time>
      </trkpt>
      <trkpt lat="49.32418" lon="1.00458">
        <ele>84</ele>
        <time>2016-07-09T09:07:31Z</time>
      </trkpt>
      <trkpt lat="49.32408" lon="1.00473">
        <ele>84</ele>
        <time>2016-07-09T09:07:36Z</time>
      </trkpt>
      <trkpt lat="49.32398" lon="1.0049">
        <ele>83</ele>
        <time>2016-07-09T09:07:41Z</time>
      </trkpt>
      <trkpt lat="49.32393" lon="1.00513">
        <ele>82</ele>
        <time>2016-07-09T09:07:46Z</time>
      </trkpt>
      <trkpt lat="49.3239" lon="1.00535">
        <ele>82</ele>
        <time>2016-07-09T09:07:51Z</time>
      </trkpt>
      <trkpt lat="49.3239" lon="1.00558">
        <ele>82</ele>
        <time>2016-07-09T09:07:56Z</time>
      </trkpt>
      <trkpt lat="49.32385" lon="1.00578">
        <ele>82</ele>
        <time>2016-07-09T09:08:02Z</time>
      </trkpt>
      <trkpt lat="49.3238" lon="1.00605">
        <ele>81</ele>
        <time>2016-07-09T09:08:09Z</time>
      </trkpt>
      <trkpt lat="49.32373" lon="1.00633">
        <ele>81</ele>
        <time>2016-07-09T09:08:17Z</time>
      </trkpt>
      <trkpt lat="49.32365" lon="1.0065">
        <ele>82</ele>
        <time>2016-07-09T09:08:22Z</time>
      </trkpt>
      <trkpt lat="49.32358" lon="1.0067">
        <ele>83</ele>
        <time>2016-07-09T09:08:29Z</time>
      </trkpt>
      <trkpt lat="49.32355" lon="1.00695">
        <ele>82</ele>
        <time>2016-07-09T09:08:35Z</time>
      </trkpt>
      <trkpt lat="49.3235" lon="1.00715">
        <ele>84</ele>
        <time>2016-07-09T09:08:41Z</time>
      </trkpt>
      <trkpt lat="49.32348" lon="1.00738">
        <ele>85</ele>
        <time>2016-07-09T09:08:48Z</time>
      </trkpt>
      <trkpt lat="49.32345" lon="1.00765">
        <ele>85</ele>
        <time>2016-07-09T09:08:56Z</time>
      </trkpt>
      <trkpt lat="49.32345" lon="1.00788">
        <ele>86</ele>
        <time>2016-07-09T09:09:04Z</time>
      </trkpt>
      <trkpt lat="49.32348" lon="1.0081">
        <ele>86</ele>
        <time>2016-07-09T09:09:12Z</time>
      </trkpt>
      <trkpt lat="49.32355" lon="1.00828">
        <ele>87</ele>
        <time>2016-07-09T09:09:20Z</time>
      </trkpt>
      <trkpt lat="49.32363" lon="1.00848">
        <ele>90</ele>
        <time>2016-07-09T09:09:29Z</time>
      </trkpt>
      <trkpt lat="49.3237" lon="1.0087">
        <ele>92</ele>
        <time>2016-07-09T09:09:41Z</time>
      </trkpt>
      <trkpt lat="49.3238" lon="1.00885">
        <ele>94</ele>
        <time>2016-07-09T09:09:50Z</time>
      </trkpt>
      <trkpt lat="49.32393" lon="1.00898">
        <ele>95</ele>
        <time>2016-07-09T09:09:59Z</time>
      </trkpt>
      <trkpt lat="49.324" lon="1.00915">
        <ele>96</ele>
        <time>2016-07-09T09:10:07Z</time>
      </trkpt>
      <trkpt lat="49.3241" lon="1.0093">
        <ele>100</ele>
        <time>2016-07-09T09:10:15Z</time>
      </trkpt>
      <trkpt lat="49.32423" lon="1.00943">
        <ele>103</ele>
        <time>2016-07-09T09:10:23Z</time>
      </trkpt>
      <trkpt lat="49.32435" lon="1.00955">
        <ele>104</ele>
        <time>2016-07-09T09:10:30Z</time>
      </trkpt>
      <trkpt lat="49.32448" lon="1.00968">
        <ele>108</ele>
        <time>2016-07-09T09:10:38Z</time>
      </trkpt>
      <trkpt lat="49.3246" lon="1.0098">
        <ele>111</ele>
        <time>2016-07-09T09:10:46Z</time>
      </trkpt>
      <trkpt lat="49.32473" lon="1.0099">
        <ele>112</ele>
        <time>2016-07-09T09:10:52Z</time>
      </trkpt>
      <trkpt lat="49.32485" lon="1.01005">
        <ele>113</ele>
        <time>2016-07-09T09:11:00Z</time>
      </trkpt>
      <trkpt lat="49.32503" lon="1.01023">
        <ele>109</ele>
        <time>2016-07-09T09:11:08Z</time>
      </trkpt>
      <trkpt lat="49.32513" lon="1.0104">
        <ele>107</ele>
        <time>2016-07-09T09:11:16Z</time>
      </trkpt>
      <trkpt lat="49.32518" lon="1.0106">
        <ele>106</ele>
        <time>2016-07-09T09:11:23Z</time>
      </trkpt>
      <trkpt lat="49.32518" lon="1.01085">
        <ele>104</ele>
        <time>2016-07-09T09:11:31Z</time>
      </trkpt>
      <trkpt lat="49.32518" lon="1.01113">
        <ele>101</ele>
        <time>2016-07-09T09:11:41Z</time>
      </trkpt>
      <trkpt lat="49.32513" lon="1.01133">
        <ele>101</ele>
        <time>2016-07-09T09:11:48Z</time>
      </trkpt>
      <trkpt lat="49.32503" lon="1.0115">
        <ele>102</ele>
        <time>2016-07-09T09:11:55Z</time>
      </trkpt>
      <trkpt lat="49.32488" lon="1.01158">
        <ele>104</ele>
        <time>2016-07-09T09:12:02Z</time>
      </trkpt>
      <trkpt lat="49.32475" lon="1.0117">
        <ele>107</ele>
        <time>2016-07-09T09:12:09Z</time>
      </trkpt>
      <trkpt lat="49.3246" lon="1.01183">
        <ele>111</ele>
        <time>2016-07-09T09:12:18Z</time>
      </trkpt>
      <trkpt lat="49.32438" lon="1.01198">
        <ele>123</ele>
        <time>2016-07-09T09:13:44Z</time>
      </trkpt>
      <trkpt lat="49.32425" lon="1.01208">
        <ele>123</ele>
        <time>2016-07-09T09:13:53Z</time>
      </trkpt>
      <trkpt lat="49.3241" lon="1.01215">
        <ele>122</ele>
        <time>2016-07-09T09:14:01Z</time>
      </trkpt>
      <trkpt lat="49.32398" lon="1.0123">
        <ele>123</ele>
        <time>2016-07-09T09:14:09Z</time>
      </trkpt>
      <trkpt lat="49.32388" lon="1.01248">
        <ele>125</ele>
        <time>2016-07-09T09:14:18Z</time>
      </trkpt>
      <trkpt lat="49.32378" lon="1.01263">
        <ele>125</ele>
        <time>2016-07-09T09:14:27Z</time>
      </trkpt>
      <trkpt lat="49.32365" lon="1.0125">
        <ele>128</ele>
        <time>2016-07-09T09:16:07Z</time>
      </trkpt>
      <trkpt lat="49.32368" lon="1.01193">
        <ele>129</ele>
        <time>2016-07-09T09:16:50Z</time>
      </trkpt>
      <trkpt lat="49.32363" lon="1.01173">
        <ele>130</ele>
        <time>2016-07-09T09:16:57Z</time>
      </trkpt>
      <trkpt lat="49.32368" lon="1.01193">
        <ele>121</ele>
        <time>2016-07-09T09:17:26Z</time>
      </trkpt>
      <trkpt lat="49.3238" lon="1.0121">
        <ele>122</ele>
        <time>2016-07-09T09:17:33Z</time>
      </trkpt>
      <trkpt lat="49.32383" lon="1.01233">
        <ele>124</ele>
        <time>2016-07-09T09:17:38Z</time>
      </trkpt>
      <trkpt lat="49.32378" lon="1.01253">
        <ele>126</ele>
        <time>2016-07-09T09:17:45Z</time>
      </trkpt>
      <trkpt lat="49.32373" lon="1.01273">
        <ele>118</ele>
        <time>2016-07-09T09:19:21Z</time>
      </trkpt>
      <trkpt lat="49.32383" lon="1.01288">
        <ele>119</ele>
        <time>2016-07-09T09:19:27Z</time>
      </trkpt>
      <trkpt lat="49.32398" lon="1.01285">
        <ele>119</ele>
        <time>2016-07-09T09:19:34Z</time>
      </trkpt>
      <trkpt lat="49.3239" lon="1.01265">
        <ele>119</ele>
        <time>2016-07-09T09:19:40Z</time>
      </trkpt>
      <trkpt lat="49.32375" lon="1.01255">
        <ele>121</ele>
        <time>2016-07-09T09:19:46Z</time>
      </trkpt>
      <trkpt lat="49.32373" lon="1.01233">
        <ele>121</ele>
        <time>2016-07-09T09:19:58Z</time>
      </trkpt>
      <trkpt lat="49.3237" lon="1.0121">
        <ele>123</ele>
        <time>2016-07-09T09:20:05Z</time>
      </trkpt>
      <trkpt lat="49.32365" lon="1.0119">
        <ele>125</ele>
        <time>2016-07-09T09:20:10Z</time>
      </trkpt>
      <trkpt lat="49.32363" lon="1.01168">
        <ele>124</ele>
        <time>2016-07-09T09:20:15Z</time>
      </trkpt>
      <trkpt lat="49.32353" lon="1.01145">
        <ele>124</ele>
        <time>2016-07-09T09:20:19Z</time>
      </trkpt>
      <trkpt lat="49.32343" lon="1.01128">
        <ele>124</ele>
        <time>2016-07-09T09:20:22Z</time>
      </trkpt>
      <trkpt lat="49.3233" lon="1.01115">
        <ele>125</ele>
        <time>2016-07-09T09:20:26Z</time>
      </trkpt>
      <trkpt lat="49.3231" lon="1.01093">
        <ele>126</ele>
        <time>2016-07-09T09:20:31Z</time>
      </trkpt>
      <trkpt lat="49.32293" lon="1.01078">
        <ele>126</ele>
        <time>2016-07-09T09:20:34Z</time>
      </trkpt>
      <trkpt lat="49.32283" lon="1.01063">
        <ele>125</ele>
        <time>2016-07-09T09:20:38Z</time>
      </trkpt>
      <trkpt lat="49.3229" lon="1.01035">
        <ele>120</ele>
        <time>2016-07-09T09:21:01Z</time>
      </trkpt>
      <trkpt lat="49.3228" lon="1.0102">
        <ele>119</ele>
        <time>2016-07-09T09:21:05Z</time>
      </trkpt>
      <trkpt lat="49.32275" lon="1.00995">
        <ele>118</ele>
        <time>2016-07-09T09:21:09Z</time>
      </trkpt>
      <trkpt lat="49.3227" lon="1.0097">
        <ele>117</ele>
        <time>2016-07-09T09:21:12Z</time>
      </trkpt>
      <trkpt lat="49.32273" lon="1.00943">
        <ele>117</ele>
        <time>2016-07-09T09:21:14Z</time>
      </trkpt>
      <trkpt lat="49.32278" lon="1.00883">
        <ele>114</ele>
        <time>2016-07-09T09:21:19Z</time>
      </trkpt>
      <trkpt lat="49.3228" lon="1.00858">
        <ele>113</ele>
        <time>2016-07-09T09:21:21Z</time>
      </trkpt>
      <trkpt lat="49.32278" lon="1.00823">
        <ele>113</ele>
        <time>2016-07-09T09:21:24Z</time>
      </trkpt>
      <trkpt lat="49.32268" lon="1.00795">
        <ele>112</ele>
        <time>2016-07-09T09:21:27Z</time>
      </trkpt>
      <trkpt lat="49.3226" lon="1.00778">
        <ele>112</ele>
        <time>2016-07-09T09:21:30Z</time>
      </trkpt>
      <trkpt lat="49.32245" lon="1.0077">
        <ele>112</ele>
        <time>2016-07-09T09:21:34Z</time>
      </trkpt>
      <trkpt lat="49.32233" lon="1.0076">
        <ele>110</ele>
        <time>2016-07-09T09:21:40Z</time>
      </trkpt>
      <trkpt lat="49.32225" lon="1.00738">
        <ele>104</ele>
        <time>2016-07-09T09:22:09Z</time>
      </trkpt>
      <trkpt lat="49.3221" lon="1.0073">
        <ele>103</ele>
        <time>2016-07-09T09:22:14Z</time>
      </trkpt>
      <trkpt lat="49.32195" lon="1.00723">
        <ele>103</ele>
        <time>2016-07-09T09:22:18Z</time>
      </trkpt>
      <trkpt lat="49.32175" lon="1.0068">
        <ele>104</ele>
        <time>2016-07-09T09:23:28Z</time>
      </trkpt>
      <trkpt lat="49.3216" lon="1.0069">
        <ele>104</ele>
        <time>2016-07-09T09:23:33Z</time>
      </trkpt>
      <trkpt lat="49.32143" lon="1.00693">
        <ele>103</ele>
        <time>2016-07-09T09:23:41Z</time>
      </trkpt>
      <trkpt lat="49.32128" lon="1.00703">
        <ele>102</ele>
        <time>2016-07-09T09:23:45Z</time>
      </trkpt>
      <trkpt lat="49.32113" lon="1.00715">
        <ele>99</ele>
        <time>2016-07-09T09:23:49Z</time>
      </trkpt>
      <trkpt lat="49.32098" lon="1.00725">
        <ele>97</ele>
        <time>2016-07-09T09:23:53Z</time>
      </trkpt>
      <trkpt lat="49.3209" lon="1.00743">
        <ele>94</ele>
        <time>2016-07-09T09:24:01Z</time>
      </trkpt>
      <trkpt lat="49.32075" lon="1.0075">
        <ele>89</ele>
        <time>2016-07-09T09:24:53Z</time>
      </trkpt>
      <trkpt lat="49.32058" lon="1.00763">
        <ele>86</ele>
        <time>2016-07-09T09:25:00Z</time>
      </trkpt>
      <trkpt lat="49.32048" lon="1.00745">
        <ele>81</ele>
        <time>2016-07-09T09:25:08Z</time>
      </trkpt>
      <trkpt lat="49.3204" lon="1.00723">
        <ele>81</ele>
        <time>2016-07-09T09:25:14Z</time>
      </trkpt>
      <trkpt lat="49.32033" lon="1.00703">
        <ele>81</ele>
        <time>2016-07-09T09:25:20Z</time>
      </trkpt>
      <trkpt lat="49.3202" lon="1.00693">
        <ele>80</ele>
        <time>2016-07-09T09:25:24Z</time>
      </trkpt>
      <trkpt lat="49.32015" lon="1.00673">
        <ele>79</ele>
        <time>2016-07-09T09:25:31Z</time>
      </trkpt>
      <trkpt lat="49.32015" lon="1.00645">
        <ele>91</ele>
        <time>2016-07-09T09:26:10Z</time>
      </trkpt>
      <trkpt lat="49.32005" lon="1.0063">
        <ele>90</ele>
        <time>2016-07-09T09:26:21Z</time>
      </trkpt>
      <trkpt lat="49.3199" lon="1.00633">
        <ele>90</ele>
        <time>2016-07-09T09:26:25Z</time>
      </trkpt>
      <trkpt lat="49.31975" lon="1.0063">
        <ele>90</ele>
        <time>2016-07-09T09:26:30Z</time>
      </trkpt>
      <trkpt lat="49.3196" lon="1.00623">
        <ele>87</ele>
        <time>2016-07-09T09:26:37Z</time>
      </trkpt>
      <trkpt lat="49.31963" lon="1.00598">
        <ele>81</ele>
        <time>2016-07-09T09:26:43Z</time>
      </trkpt>
      <trkpt lat="49.31963" lon="1.00575">
        <ele>83</ele>
        <time>2016-07-09T09:27:46Z</time>
      </trkpt>
      <trkpt lat="49.3197" lon="1.00555">
        <ele>83</ele>
        <time>2016-07-09T09:27:52Z</time>
      </trkpt>
      <trkpt lat="49.31953" lon="1.00533">
        <ele>92</ele>
        <time>2016-07-09T09:28:27Z</time>
      </trkpt>
      <trkpt lat="49.3194" lon="1.0052">
        <ele>89</ele>
        <time>2016-07-09T09:28:44Z</time>
      </trkpt>
      <trkpt lat="49.3193" lon="1.00505">
        <ele>84</ele>
        <time>2016-07-09T09:29:11Z</time>
      </trkpt>
      <trkpt lat="49.31915" lon="1.0051">
        <ele>83</ele>
        <time>2016-07-09T09:29:16Z</time>
      </trkpt>
      <trkpt lat="49.31908" lon="1.00493">
        <ele>81</ele>
        <time>2016-07-09T09:29:24Z</time>
      </trkpt>
      <trkpt lat="49.31913" lon="1.00473">
        <ele>83</ele>
        <time>2016-07-09T09:29:31Z</time>
      </trkpt>
      <trkpt lat="49.31915" lon="1.0045">
        <ele>85</ele>
        <time>2016-07-09T09:29:37Z</time>
      </trkpt>
      <trkpt lat="49.31895" lon="1.00438">
        <ele>94</ele>
        <time>2016-07-09T09:30:23Z</time>
      </trkpt>
      <trkpt lat="49.31883" lon="1.00428">
        <ele>93</ele>
        <time>2016-07-09T09:30:31Z</time>
      </trkpt>
      <trkpt lat="49.31875" lon="1.0041">
        <ele>89</ele>
        <time>2016-07-09T09:30:37Z</time>
      </trkpt>
      <trkpt lat="49.31865" lon="1.00395">
        <ele>85</ele>
        <time>2016-07-09T09:30:44Z</time>
      </trkpt>
      <trkpt lat="49.31855" lon="1.00375">
        <ele>83</ele>
        <time>2016-07-09T09:30:49Z</time>
      </trkpt>
      <trkpt lat="49.31848" lon="1.00345">
        <ele>72.2</ele>
        <time>2016-07-09T09:31:19Z</time>
      </trkpt>
      <trkpt lat="49.3183" lon="1.00345">
        <ele>93</ele>
        <time>2016-07-09T09:31:36Z</time>
      </trkpt>
      <trkpt lat="49.31823" lon="1.00328">
        <ele>85</ele>
        <time>2016-07-09T09:31:46Z</time>
      </trkpt>
      <trkpt lat="49.31815" lon="1.00308">
        <ele>81</ele>
        <time>2016-07-09T09:31:54Z</time>
      </trkpt>
      <trkpt lat="49.3181" lon="1.0028">
        <ele>82</ele>
        <time>2016-07-09T09:32:04Z</time>
      </trkpt>
      <trkpt lat="49.31803" lon="1.00263">
        <ele>82</ele>
        <time>2016-07-09T09:32:10Z</time>
      </trkpt>
      <trkpt lat="49.31793" lon="1.00225">
        <ele>79</ele>
        <time>2016-07-09T09:32:58Z</time>
      </trkpt>
      <trkpt lat="49.31778" lon="1.00228">
        <ele>78</ele>
        <time>2016-07-09T09:33:05Z</time>
      </trkpt>
      <trkpt lat="49.31763" lon="1.0022">
        <ele>77</ele>
        <time>2016-07-09T09:33:13Z</time>
      </trkpt>
      <trkpt lat="49.3175" lon="1.00205">
        <ele>77</ele>
        <time>2016-07-09T09:33:20Z</time>
      </trkpt>
      <trkpt lat="49.31738" lon="1.00195">
        <ele>75</ele>
        <time>2016-07-09T09:33:27Z</time>
      </trkpt>
      <trkpt lat="49.31735" lon="1.00173">
        <ele>73</ele>
        <time>2016-07-09T09:33:32Z</time>
      </trkpt>
      <trkpt lat="49.31735" lon="1.00148">
        <ele>71</ele>
        <time>2016-07-09T09:33:38Z</time>
      </trkpt>
      <trkpt lat="49.31733" lon="1.00115">
        <ele>79</ele>
        <time>2016-07-09T09:34:18Z</time>
      </trkpt>
      <trkpt lat="49.31715" lon="1.00115">
        <ele>77</ele>
        <time>2016-07-09T09:34:22Z</time>
      </trkpt>
      <trkpt lat="49.31703" lon="1.00103">
        <ele>77</ele>
        <time>2016-07-09T09:34:29Z</time>
      </trkpt>
      <trkpt lat="49.31688" lon="1.00085">
        <ele>80</ele>
        <time>2016-07-09T09:34:39Z</time>
      </trkpt>
      <trkpt lat="49.3167" lon="1.00048">
        <ele>80</ele>
        <time>2016-07-09T09:35:11Z</time>
      </trkpt>
      <trkpt lat="49.31663" lon="1.00028">
        <ele>81</ele>
        <time>2016-07-09T09:35:18Z</time>
      </trkpt>
      <trkpt lat="49.31665" lon="1.00005">
        <ele>83</ele>
        <time>2016-07-09T09:35:26Z</time>
      </trkpt>
      <trkpt lat="49.31645" lon="0.99978">
        <ele>92</ele>
        <time>2016-07-09T09:37:26Z</time>
      </trkpt>
      <trkpt lat="49.3163" lon="0.9998">
        <ele>92</ele>
        <time>2016-07-09T09:37:36Z</time>
      </trkpt>
      <trkpt lat="49.31615" lon="0.99975">
        <ele>92</ele>
        <time>2016-07-09T09:37:43Z</time>
      </trkpt>
      <trkpt lat="49.31603" lon="0.99965">
        <ele>93</ele>
        <time>2016-07-09T09:37:50Z</time>
      </trkpt>
      <trkpt lat="49.31588" lon="0.99973">
        <ele>91</ele>
        <time>2016-07-09T09:37:55Z</time>
      </trkpt>
      <trkpt lat="49.3157" lon="0.99958">
        <ele>87</ele>
        <time>2016-07-09T09:38:37Z</time>
      </trkpt>
      <trkpt lat="49.31555" lon="0.99938">
        <ele>88</ele>
        <time>2016-07-09T09:38:46Z</time>
      </trkpt>
      <trkpt lat="49.31543" lon="0.99925">
        <ele>87</ele>
        <time>2016-07-09T09:38:51Z</time>
      </trkpt>
      <trkpt lat="49.31535" lon="0.99905">
        <ele>86</ele>
        <time>2016-07-09T09:38:56Z</time>
      </trkpt>
      <trkpt lat="49.31523" lon="0.99893">
        <ele>83</ele>
        <time>2016-07-09T09:39:01Z</time>
      </trkpt>
      <trkpt lat="49.31515" lon="0.99875">
        <ele>82</ele>
        <time>2016-07-09T09:39:06Z</time>
      </trkpt>
      <trkpt lat="49.3152" lon="0.99855">
        <ele>77</ele>
        <time>2016-07-09T09:39:41Z</time>
      </trkpt>
      <trkpt lat="49.3153" lon="0.99838">
        <ele>78</ele>
        <time>2016-07-09T09:39:48Z</time>
      </trkpt>
      <trkpt lat="49.31523" lon="0.99818">
        <ele>76</ele>
        <time>2016-07-09T09:39:53Z</time>
      </trkpt>
      <trkpt lat="49.31518" lon="0.99798">
        <ele>73</ele>
        <time>2016-07-09T09:40:21Z</time>
      </trkpt>
      <trkpt lat="49.31505" lon="0.99783">
        <ele>69</ele>
        <time>2016-07-09T09:40:27Z</time>
      </trkpt>
      <trkpt lat="49.31493" lon="0.99773">
        <ele>66</ele>
        <time>2016-07-09T09:40:32Z</time>
      </trkpt>
      <trkpt lat="49.31478" lon="0.99778">
        <ele>64</ele>
        <time>2016-07-09T09:40:37Z</time>
      </trkpt>
      <trkpt lat="49.31463" lon="0.9978">
        <ele>62</ele>
        <time>2016-07-09T09:40:42Z</time>
      </trkpt>
      <trkpt lat="49.31448" lon="0.99783">
        <ele>60</ele>
        <time>2016-07-09T09:40:47Z</time>
      </trkpt>
      <trkpt lat="49.31433" lon="0.99785">
        <ele>58</ele>
        <time>2016-07-09T09:40:51Z</time>
      </trkpt>
      <trkpt lat="49.3142" lon="0.99775">
        <ele>53</ele>
        <time>2016-07-09T09:40:56Z</time>
      </trkpt>
      <trkpt lat="49.31408" lon="0.99765">
        <ele>51</ele>
        <time>2016-07-09T09:41:03Z</time>
      </trkpt>
      <trkpt lat="49.31408" lon="0.9974">
        <ele>51</ele>
        <time>2016-07-09T09:41:20Z</time>
      </trkpt>
      <trkpt lat="49.31425" lon="0.99735">
        <ele>52</ele>
        <time>2016-07-09T09:41:31Z</time>
      </trkpt>
      <trkpt lat="49.31443" lon="0.99735">
        <ele>52</ele>
        <time>2016-07-09T09:41:38Z</time>
      </trkpt>
      <trkpt lat="49.3146" lon="0.99735">
        <ele>53</ele>
        <time>2016-07-09T09:41:46Z</time>
      </trkpt>
      <trkpt lat="49.31475" lon="0.99735">
        <ele>53</ele>
        <time>2016-07-09T09:41:52Z</time>
      </trkpt>
      <trkpt lat="49.3149" lon="0.99738">
        <ele>55</ele>
        <time>2016-07-09T09:41:58Z</time>
      </trkpt>
      <trkpt lat="49.31505" lon="0.99735">
        <ele>56</ele>
        <time>2016-07-09T09:42:02Z</time>
      </trkpt>
      <trkpt lat="49.31528" lon="0.99738">
        <ele>58</ele>
        <time>2016-07-09T09:42:09Z</time>
      </trkpt>
      <trkpt lat="49.31543" lon="0.99743">
        <ele>57</ele>
        <time>2016-07-09T09:42:13Z</time>
      </trkpt>
      <trkpt lat="49.31558" lon="0.99748">
        <ele>60</ele>
        <time>2016-07-09T09:42:19Z</time>
      </trkpt>
      <trkpt lat="49.31573" lon="0.99753">
        <ele>62</ele>
        <time>2016-07-09T09:42:24Z</time>
      </trkpt>
      <trkpt lat="49.3159" lon="0.99758">
        <ele>64</ele>
        <time>2016-07-09T09:42:29Z</time>
      </trkpt>
      <trkpt lat="49.31605" lon="0.99768">
        <ele>65</ele>
        <time>2016-07-09T09:42:36Z</time>
      </trkpt>
      <trkpt lat="49.31623" lon="0.9978">
        <ele>68</ele>
        <time>2016-07-09T09:42:45Z</time>
      </trkpt>
      <trkpt lat="49.31633" lon="0.99765">
        <ele>67</ele>
        <time>2016-07-09T09:42:50Z</time>
      </trkpt>
      <trkpt lat="49.31648" lon="0.99768">
        <ele>67</ele>
        <time>2016-07-09T09:42:56Z</time>
      </trkpt>
      <trkpt lat="49.31663" lon="0.99778">
        <ele>67</ele>
        <time>2016-07-09T09:43:02Z</time>
      </trkpt>
      <trkpt lat="49.31678" lon="0.99785">
        <ele>66</ele>
        <time>2016-07-09T09:43:08Z</time>
      </trkpt>
      <trkpt lat="49.31695" lon="0.99793">
        <ele>67</ele>
        <time>2016-07-09T09:43:13Z</time>
      </trkpt>
      <trkpt lat="49.3173" lon="0.99793">
        <ele>73</ele>
        <time>2016-07-09T09:43:58Z</time>
      </trkpt>
      <trkpt lat="49.31748" lon="0.99798">
        <ele>71</ele>
        <time>2016-07-09T09:44:03Z</time>
      </trkpt>
      <trkpt lat="49.31763" lon="0.99805">
        <ele>71</ele>
        <time>2016-07-09T09:44:06Z</time>
      </trkpt>
      <trkpt lat="49.31778" lon="0.99813">
        <ele>69</ele>
        <time>2016-07-09T09:44:09Z</time>
      </trkpt>
      <trkpt lat="49.31778" lon="0.99788">
        <ele>65</ele>
        <time>2016-07-09T09:44:15Z</time>
      </trkpt>
      <trkpt lat="49.31765" lon="0.99775">
        <ele>61</ele>
        <time>2016-07-09T09:44:21Z</time>
      </trkpt>
      <trkpt lat="49.3176" lon="0.99755">
        <ele>59</ele>
        <time>2016-07-09T09:44:24Z</time>
      </trkpt>
      <trkpt lat="49.31753" lon="0.99735">
        <ele>58</ele>
        <time>2016-07-09T09:44:27Z</time>
      </trkpt>
      <trkpt lat="49.31748" lon="0.99715">
        <ele>57</ele>
        <time>2016-07-09T09:44:31Z</time>
      </trkpt>
      <trkpt lat="49.3174" lon="0.99695">
        <ele>56</ele>
        <time>2016-07-09T09:44:37Z</time>
      </trkpt>
      <trkpt lat="49.3174" lon="0.99673">
        <ele>55</ele>
        <time>2016-07-09T09:44:41Z</time>
      </trkpt>
      <trkpt lat="49.31733" lon="0.99653">
        <ele>51</ele>
        <time>2016-07-09T09:44:45Z</time>
      </trkpt>
      <trkpt lat="49.31725" lon="0.99635">
        <ele>45</ele>
        <time>2016-07-09T09:44:51Z</time>
      </trkpt>
      <trkpt lat="49.31733" lon="0.99653">
        <ele>33</ele>
        <time>2016-07-09T09:45:26Z</time>
      </trkpt>
      <trkpt lat="49.3174" lon="0.9967">
        <ele>34</ele>
        <time>2016-07-09T09:45:32Z</time>
      </trkpt>
      <trkpt lat="49.3175" lon="0.997">
        <ele>41</ele>
        <time>2016-07-09T09:46:33Z</time>
      </trkpt>
      <trkpt lat="49.3176" lon="0.99715">
        <ele>43</ele>
        <time>2016-07-09T09:46:41Z</time>
      </trkpt>
      <trkpt lat="49.3177" lon="0.99733">
        <ele>45</ele>
        <time>2016-07-09T09:46:50Z</time>
      </trkpt>
      <trkpt lat="49.31778" lon="0.9975">
        <ele>54</ele>
        <time>2016-07-09T09:47:23Z</time>
      </trkpt>
      <trkpt lat="49.3179" lon="0.99765">
        <ele>55</ele>
        <time>2016-07-09T09:47:30Z</time>
      </trkpt>
      <trkpt lat="49.31805" lon="0.99783">
        <ele>56</ele>
        <time>2016-07-09T09:47:40Z</time>
      </trkpt>
      <trkpt lat="49.31813" lon="0.998">
        <ele>59</ele>
        <time>2016-07-09T09:47:47Z</time>
      </trkpt>
      <trkpt lat="49.31823" lon="0.99818">
        <ele>63</ele>
        <time>2016-07-09T09:47:55Z</time>
      </trkpt>
      <trkpt lat="49.31828" lon="0.99838">
        <ele>89</ele>
        <time>2016-07-09T09:50:18Z</time>
      </trkpt>
      <trkpt lat="49.31848" lon="0.99838">
        <ele>85</ele>
        <time>2016-07-09T09:50:41Z</time>
      </trkpt>
      <trkpt lat="49.31863" lon="0.9984">
        <ele>85</ele>
        <time>2016-07-09T09:50:49Z</time>
      </trkpt>
      <trkpt lat="49.3188" lon="0.99845">
        <ele>84</ele>
        <time>2016-07-09T09:50:56Z</time>
      </trkpt>
      <trkpt lat="49.31895" lon="0.9985">
        <ele>82</ele>
        <time>2016-07-09T09:51:01Z</time>
      </trkpt>
      <trkpt lat="49.31928" lon="0.99843">
        <ele>89</ele>
        <time>2016-07-09T09:51:57Z</time>
      </trkpt>
      <trkpt lat="49.31935" lon="0.9986">
        <ele>82</ele>
        <time>2016-07-09T09:53:55Z</time>
      </trkpt>
      <trkpt lat="49.31945" lon="0.99875">
        <ele>85</ele>
        <time>2016-07-09T09:54:01Z</time>
      </trkpt>
      <trkpt lat="49.31958" lon="0.9989">
        <ele>87</ele>
        <time>2016-07-09T09:54:09Z</time>
      </trkpt>
      <trkpt lat="49.31968" lon="0.99908">
        <ele>91</ele>
        <time>2016-07-09T09:54:17Z</time>
      </trkpt>
      <trkpt lat="49.31978" lon="0.99923">
        <ele>93</ele>
        <time>2016-07-09T09:54:24Z</time>
      </trkpt>
      <trkpt lat="49.31985" lon="0.9994">
        <ele>93</ele>
        <time>2016-07-09T09:54:30Z</time>
      </trkpt>
      <trkpt lat="49.31998" lon="0.99963">
        <ele>104</ele>
        <time>2016-07-09T09:55:18Z</time>
      </trkpt>
      <trkpt lat="49.3201" lon="0.9995">
        <ele>106</ele>
        <time>2016-07-09T09:55:23Z</time>
      </trkpt>
      <trkpt lat="49.3202" lon="0.99935">
        <ele>107</ele>
        <time>2016-07-09T09:55:29Z</time>
      </trkpt>
      <trkpt lat="49.32035" lon="0.999">
        <ele>108</ele>
        <time>2016-07-09T09:57:06Z</time>
      </trkpt>
      <trkpt lat="49.3204" lon="0.9988">
        <ele>108</ele>
        <time>2016-07-09T09:57:13Z</time>
      </trkpt>
      <trkpt lat="49.32055" lon="0.9988">
        <ele>108</ele>
        <time>2016-07-09T09:57:21Z</time>
      </trkpt>
      <trkpt lat="49.3207" lon="0.99873">
        <ele>107</ele>
        <time>2016-07-09T09:57:27Z</time>
      </trkpt>
      <trkpt lat="49.32073" lon="0.9985">
        <ele>106</ele>
        <time>2016-07-09T09:57:38Z</time>
      </trkpt>
      <trkpt lat="49.3206" lon="0.99838">
        <ele>104</ele>
        <time>2016-07-09T09:57:43Z</time>
      </trkpt>
      <trkpt lat="49.32045" lon="0.9983">
        <ele>104</ele>
        <time>2016-07-09T09:57:48Z</time>
      </trkpt>
      <trkpt lat="49.3203" lon="0.9983">
        <ele>103</ele>
        <time>2016-07-09T09:57:53Z</time>
      </trkpt>
      <trkpt lat="49.32015" lon="0.99835">
        <ele>102</ele>
        <time>2016-07-09T09:57:59Z</time>
      </trkpt>
      <trkpt lat="49.3202" lon="0.9981">
        <ele>103</ele>
        <time>2016-07-09T09:58:07Z</time>
      </trkpt>
      <trkpt lat="49.3201" lon="0.99795">
        <ele>100</ele>
        <time>2016-07-09T09:58:13Z</time>
      </trkpt>
      <trkpt lat="49.31993" lon="0.99783">
        <ele>99</ele>
        <time>2016-07-09T09:58:30Z</time>
      </trkpt>
      <trkpt lat="49.31988" lon="0.99763">
        <ele>96</ele>
        <time>2016-07-09T09:58:40Z</time>
      </trkpt>
      <trkpt lat="49.31973" lon="0.99758">
        <ele>94</ele>
        <time>2016-07-09T09:58:46Z</time>
      </trkpt>
      <trkpt lat="49.31963" lon="0.9974">
        <ele>94</ele>
        <time>2016-07-09T09:58:51Z</time>
      </trkpt>
      <trkpt lat="49.3195" lon="0.99728">
        <ele>94</ele>
        <time>2016-07-09T09:58:57Z</time>
      </trkpt>
      <trkpt lat="49.31953" lon="0.99703">
        <ele>93</ele>
        <time>2016-07-09T09:59:03Z</time>
      </trkpt>
      <trkpt lat="49.3194" lon="0.99693">
        <ele>91</ele>
        <time>2016-07-09T09:59:07Z</time>
      </trkpt>
      <trkpt lat="49.31925" lon="0.997">
        <ele>89</ele>
        <time>2016-07-09T09:59:13Z</time>
      </trkpt>
      <trkpt lat="49.31915" lon="0.99685">
        <ele>89</ele>
        <time>2016-07-09T09:59:19Z</time>
      </trkpt>
      <trkpt lat="49.31908" lon="0.99668">
        <ele>87</ele>
        <time>2016-07-09T09:59:27Z</time>
      </trkpt>
      <trkpt lat="49.31895" lon="0.99678">
        <ele>84</ele>
        <time>2016-07-09T09:59:34Z</time>
      </trkpt>
      <trkpt lat="49.3187" lon="0.99678">
        <ele>79</ele>
        <time>2016-07-09T09:59:51Z</time>
      </trkpt>
      <trkpt lat="49.3186" lon="0.99663">
        <ele>79</ele>
        <time>2016-07-09T09:59:56Z</time>
      </trkpt>
      <trkpt lat="49.31845" lon="0.99668">
        <ele>77</ele>
        <time>2016-07-09T10:00:02Z</time>
      </trkpt>
      <trkpt lat="49.31858" lon="0.9965">
        <ele>77</ele>
        <time>2016-07-09T10:00:09Z</time>
      </trkpt>
      <trkpt lat="49.3187" lon="0.9963">
        <ele>77</ele>
        <time>2016-07-09T10:00:15Z</time>
      </trkpt>
      <trkpt lat="49.3188" lon="0.99615">
        <ele>78</ele>
        <time>2016-07-09T10:00:18Z</time>
      </trkpt>
      <trkpt lat="49.3189" lon="0.996">
        <ele>78</ele>
        <time>2016-07-09T10:00:23Z</time>
      </trkpt>
      <trkpt lat="49.31903" lon="0.9959">
        <ele>76</ele>
        <time>2016-07-09T10:00:30Z</time>
      </trkpt>
      <trkpt lat="49.31913" lon="0.99573">
        <ele>74</ele>
        <time>2016-07-09T10:01:10Z</time>
      </trkpt>
      <trkpt lat="49.3193" lon="0.99573">
        <ele>72</ele>
        <time>2016-07-09T10:01:17Z</time>
      </trkpt>
      <trkpt lat="49.31945" lon="0.99585">
        <ele>70</ele>
        <time>2016-07-09T10:01:26Z</time>
      </trkpt>
      <trkpt lat="49.3196" lon="0.99598">
        <ele>68</ele>
        <time>2016-07-09T10:01:31Z</time>
      </trkpt>
      <trkpt lat="49.31983" lon="0.99598">
        <ele>66</ele>
        <time>2016-07-09T10:02:01Z</time>
      </trkpt>
      <trkpt lat="49.3199" lon="0.99573">
        <ele>61</ele>
        <time>2016-07-09T10:03:04Z</time>
      </trkpt>
      <trkpt lat="49.31975" lon="0.99563">
        <ele>60</ele>
        <time>2016-07-09T10:03:08Z</time>
      </trkpt>
      <trkpt lat="49.31963" lon="0.9955">
        <ele>58</ele>
        <time>2016-07-09T10:03:11Z</time>
      </trkpt>
      <trkpt lat="49.3195" lon="0.9953">
        <ele>56</ele>
        <time>2016-07-09T10:03:14Z</time>
      </trkpt>
      <trkpt lat="49.31933" lon="0.99513">
        <ele>53</ele>
        <time>2016-07-09T10:03:17Z</time>
      </trkpt>
      <trkpt lat="49.31915" lon="0.99503">
        <ele>51</ele>
        <time>2016-07-09T10:03:20Z</time>
      </trkpt>
      <trkpt lat="49.319" lon="0.99495">
        <ele>50</ele>
        <time>2016-07-09T10:03:23Z</time>
      </trkpt>
      <trkpt lat="49.3188" lon="0.99505">
        <ele>46</ele>
        <time>2016-07-09T10:03:26Z</time>
      </trkpt>
      <trkpt lat="49.31868" lon="0.99518">
        <ele>42</ele>
        <time>2016-07-09T10:03:30Z</time>
      </trkpt>
      <trkpt lat="49.31853" lon="0.99528">
        <ele>37</ele>
        <time>2016-07-09T10:03:34Z</time>
      </trkpt>
      <trkpt lat="49.3184" lon="0.99538">
        <ele>37</ele>
        <time>2016-07-09T10:03:38Z</time>
      </trkpt>
      <trkpt lat="49.31828" lon="0.99553">
        <ele>37</ele>
        <time>2016-07-09T10:03:43Z</time>
      </trkpt>
      <trkpt lat="49.31815" lon="0.99565">
        <ele>37</ele>
        <time>2016-07-09T10:03:48Z</time>
      </trkpt>
      <trkpt lat="49.31803" lon="0.99578">
        <ele>36</ele>
        <time>2016-07-09T10:03:51Z</time>
      </trkpt>
      <trkpt lat="49.3179" lon="0.99593">
        <ele>36</ele>
        <time>2016-07-09T10:03:56Z</time>
      </trkpt>
      <trkpt lat="49.31775" lon="0.9961">
        <ele>37</ele>
        <time>2016-07-09T10:04:00Z</time>
      </trkpt>
      <trkpt lat="49.31768" lon="0.99628">
        <ele>36</ele>
        <time>2016-07-09T10:04:04Z</time>
      </trkpt>
      <trkpt lat="49.31758" lon="0.99645">
        <ele>36</ele>
        <time>2016-07-09T10:04:07Z</time>
      </trkpt>
      <trkpt lat="49.31748" lon="0.99663">
        <ele>36</ele>
        <time>2016-07-09T10:04:11Z</time>
      </trkpt>
      <trkpt lat="49.31733" lon="0.9964">
        <ele>36</ele>
        <time>2016-07-09T10:04:28Z</time>
      </trkpt>
      <trkpt lat="49.31728" lon="0.99615">
        <ele>34</ele>
        <time>2016-07-09T10:04:35Z</time>
      </trkpt>
      <trkpt lat="49.31733" lon="0.99595">
        <ele>32</ele>
        <time>2016-07-09T10:04:37Z</time>
      </trkpt>
      <trkpt lat="49.3174" lon="0.99575">
        <ele>31</ele>
        <time>2016-07-09T10:04:39Z</time>
      </trkpt>
      <trkpt lat="49.31755" lon="0.99548">
        <ele>30</ele>
        <time>2016-07-09T10:04:42Z</time>
      </trkpt>
      <trkpt lat="49.31773" lon="0.99528">
        <ele>28</ele>
        <time>2016-07-09T10:04:45Z</time>
      </trkpt>
      <trkpt lat="49.31788" lon="0.99505">
        <ele>26</ele>
        <time>2016-07-09T10:04:48Z</time>
      </trkpt>
      <trkpt lat="49.31798" lon="0.99488">
        <ele>23</ele>
        <time>2016-07-09T10:04:50Z</time>
      </trkpt>
      <trkpt lat="49.31805" lon="0.99468">
        <ele>22</ele>
        <time>2016-07-09T10:04:53Z</time>
      </trkpt>
      <trkpt lat="49.31815" lon="0.99453">
        <ele>19</ele>
        <time>2016-07-09T10:04:56Z</time>
      </trkpt>
      <trkpt lat="49.3183" lon="0.9944">
        <ele>19</ele>
        <time>2016-07-09T10:05:00Z</time>
      </trkpt>
      <trkpt lat="49.3185" lon="0.99423">
        <ele>18</ele>
        <time>2016-07-09T10:05:07Z</time>
      </trkpt>
      <trkpt lat="49.31863" lon="0.99408">
        <ele>17</ele>
        <time>2016-07-09T10:05:12Z</time>
      </trkpt>
      <trkpt lat="49.31878" lon="0.99395">
        <ele>17</ele>
        <time>2016-07-09T10:05:17Z</time>
      </trkpt>
      <trkpt lat="49.31888" lon="0.9938">
        <ele>17</ele>
        <time>2016-07-09T10:05:21Z</time>
      </trkpt>
      <trkpt lat="49.31898" lon="0.99365">
        <ele>17</ele>
        <time>2016-07-09T10:05:25Z</time>
      </trkpt>
      <trkpt lat="49.31908" lon="0.99348">
        <ele>17</ele>
        <time>2016-07-09T10:05:29Z</time>
      </trkpt>
      <trkpt lat="49.31915" lon="0.99325">
        <ele>16</ele>
        <time>2016-07-09T10:05:33Z</time>
      </trkpt>
      <trkpt lat="49.3193" lon="0.99285">
        <ele>16</ele>
        <time>2016-07-09T10:05:38Z</time>
      </trkpt>
      <trkpt lat="49.3194" lon="0.99265">
        <ele>17</ele>
        <time>2016-07-09T10:05:41Z</time>
      </trkpt>
      <trkpt lat="49.3196" lon="0.99235">
        <ele>17</ele>
        <time>2016-07-09T10:05:45Z</time>
      </trkpt>
      <trkpt lat="49.31975" lon="0.99208">
        <ele>19</ele>
        <time>2016-07-09T10:05:49Z</time>
      </trkpt>
      <trkpt lat="49.31983" lon="0.99185">
        <ele>17</ele>
        <time>2016-07-09T10:05:52Z</time>
      </trkpt>
      <trkpt lat="49.31993" lon="0.99165">
        <ele>17</ele>
        <time>2016-07-09T10:05:56Z</time>
      </trkpt>
      <trkpt lat="49.32008" lon="0.9914">
        <ele>17</ele>
        <time>2016-07-09T10:06:00Z</time>
      </trkpt>
      <trkpt lat="49.32033" lon="0.99098">
        <ele>18</ele>
        <time>2016-07-09T10:06:08Z</time>
      </trkpt>
      <trkpt lat="49.3204" lon="0.9908">
        <ele>17</ele>
        <time>2016-07-09T10:06:12Z</time>
      </trkpt>
      <trkpt lat="49.32055" lon="0.99058">
        <ele>18</ele>
        <time>2016-07-09T10:06:18Z</time>
      </trkpt>
      <trkpt lat="49.32063" lon="0.9904">
        <ele>17</ele>
        <time>2016-07-09T10:06:22Z</time>
      </trkpt>
      <trkpt lat="49.3207" lon="0.9902">
        <ele>18</ele>
        <time>2016-07-09T10:06:26Z</time>
      </trkpt>
      <trkpt lat="49.32075" lon="0.98995">
        <ele>18</ele>
        <time>2016-07-09T10:06:32Z</time>
      </trkpt>
      <trkpt lat="49.32083" lon="0.98978">
        <ele>19</ele>
        <time>2016-07-09T10:06:35Z</time>
      </trkpt>
      <trkpt lat="49.3209" lon="0.98955">
        <ele>20</ele>
        <time>2016-07-09T10:06:40Z</time>
      </trkpt>
      <trkpt lat="49.3209" lon="0.98933">
        <ele>20</ele>
        <time>2016-07-09T10:06:43Z</time>
      </trkpt>
      <trkpt lat="49.32095" lon="0.98913">
        <ele>18</ele>
        <time>2016-07-09T10:06:46Z</time>
      </trkpt>
      <trkpt lat="49.32103" lon="0.98895">
        <ele>19</ele>
        <time>2016-07-09T10:06:49Z</time>
      </trkpt>
      <trkpt lat="49.32105" lon="0.98873">
        <ele>20</ele>
        <time>2016-07-09T10:06:53Z</time>
      </trkpt>
      <trkpt lat="49.32113" lon="0.98853">
        <ele>21</ele>
        <time>2016-07-09T10:06:57Z</time>
      </trkpt>
      <trkpt lat="49.32115" lon="0.9883">
        <ele>22</ele>
        <time>2016-07-09T10:07:02Z</time>
      </trkpt>
      <trkpt lat="49.32123" lon="0.98813">
        <ele>24</ele>
        <time>2016-07-09T10:07:06Z</time>
      </trkpt>
      <trkpt lat="49.32125" lon="0.9879">
        <ele>26</ele>
        <time>2016-07-09T10:07:12Z</time>
      </trkpt>
      <trkpt lat="49.3213" lon="0.9877">
        <ele>28</ele>
        <time>2016-07-09T10:07:17Z</time>
      </trkpt>
      <trkpt lat="49.3214" lon="0.98748">
        <ele>29</ele>
        <time>2016-07-09T10:07:23Z</time>
      </trkpt>
      <trkpt lat="49.32158" lon="0.98723">
        <ele>40</ele>
        <time>2016-07-09T10:09:42Z</time>
      </trkpt>
      <trkpt lat="49.32185" lon="0.98695">
        <ele>44</ele>
        <time>2016-07-09T10:10:04Z</time>
      </trkpt>
      <trkpt lat="49.32213" lon="0.98693">
        <ele>50</ele>
        <time>2016-07-09T10:10:23Z</time>
      </trkpt>
      <trkpt lat="49.32223" lon="0.98708">
        <ele>51</ele>
        <time>2016-07-09T10:10:29Z</time>
      </trkpt>
      <trkpt lat="49.32233" lon="0.98693">
        <ele>51</ele>
        <time>2016-07-09T10:10:37Z</time>
      </trkpt>
      <trkpt lat="49.32225" lon="0.9867">
        <ele>52</ele>
        <time>2016-07-09T10:10:44Z</time>
      </trkpt>
      <trkpt lat="49.32215" lon="0.98655">
        <ele>53</ele>
        <time>2016-07-09T10:10:49Z</time>
      </trkpt>
      <trkpt lat="49.32205" lon="0.98635">
        <ele>53</ele>
        <time>2016-07-09T10:10:54Z</time>
      </trkpt>
      <trkpt lat="49.32193" lon="0.98623">
        <ele>53</ele>
        <time>2016-07-09T10:10:58Z</time>
      </trkpt>
      <trkpt lat="49.3218" lon="0.9861">
        <ele>52</ele>
        <time>2016-07-09T10:11:03Z</time>
      </trkpt>
      <trkpt lat="49.32173" lon="0.98593">
        <ele>54</ele>
        <time>2016-07-09T10:11:08Z</time>
      </trkpt>
      <trkpt lat="49.32155" lon="0.9857">
        <ele>48</ele>
        <time>2016-07-09T10:13:10Z</time>
      </trkpt>
      <trkpt lat="49.32145" lon="0.98555">
        <ele>49</ele>
        <time>2016-07-09T10:13:15Z</time>
      </trkpt>
      <trkpt lat="49.32135" lon="0.9854">
        <ele>48</ele>
        <time>2016-07-09T10:13:20Z</time>
      </trkpt>
      <trkpt lat="49.32125" lon="0.98525">
        <ele>48</ele>
        <time>2016-07-09T10:13:24Z</time>
      </trkpt>
      <trkpt lat="49.32113" lon="0.98513">
        <ele>49</ele>
        <time>2016-07-09T10:13:28Z</time>
      </trkpt>
      <trkpt lat="49.321" lon="0.985">
        <ele>50</ele>
        <time>2016-07-09T10:13:32Z</time>
      </trkpt>
      <trkpt lat="49.3209" lon="0.98485">
        <ele>51</ele>
        <time>2016-07-09T10:13:36Z</time>
      </trkpt>
      <trkpt lat="49.3208" lon="0.98465">
        <ele>53</ele>
        <time>2016-07-09T10:13:41Z</time>
      </trkpt>
      <trkpt lat="49.32065" lon="0.98458">
        <ele>53</ele>
        <time>2016-07-09T10:13:47Z</time>
      </trkpt>
      <trkpt lat="49.32045" lon="0.98455">
        <ele>52</ele>
        <time>2016-07-09T10:13:54Z</time>
      </trkpt>
      <trkpt lat="49.3203" lon="0.98455">
        <ele>53</ele>
        <time>2016-07-09T10:14:00Z</time>
      </trkpt>
      <trkpt lat="49.32015" lon="0.9846">
        <ele>53</ele>
        <time>2016-07-09T10:14:05Z</time>
      </trkpt>
      <trkpt lat="49.31998" lon="0.9846">
        <ele>53</ele>
        <time>2016-07-09T10:14:11Z</time>
      </trkpt>
      <trkpt lat="49.31983" lon="0.98463">
        <ele>53</ele>
        <time>2016-07-09T10:14:15Z</time>
      </trkpt>
      <trkpt lat="49.31968" lon="0.98468">
        <ele>51</ele>
        <time>2016-07-09T10:14:21Z</time>
      </trkpt>
      <trkpt lat="49.31953" lon="0.98473">
        <ele>49</ele>
        <time>2016-07-09T10:14:25Z</time>
      </trkpt>
      <trkpt lat="49.3193" lon="0.98483">
        <ele>44</ele>
        <time>2016-07-09T10:14:49Z</time>
      </trkpt>
      <trkpt lat="49.31915" lon="0.9849">
        <ele>40</ele>
        <time>2016-07-09T10:14:55Z</time>
      </trkpt>
      <trkpt lat="49.319" lon="0.98498">
        <ele>38</ele>
        <time>2016-07-09T10:15:00Z</time>
      </trkpt>
      <trkpt lat="49.31885" lon="0.98498">
        <ele>36</ele>
        <time>2016-07-09T10:15:03Z</time>
      </trkpt>
      <trkpt lat="49.31868" lon="0.98495">
        <ele>36</ele>
        <time>2016-07-09T10:15:08Z</time>
      </trkpt>
      <trkpt lat="49.31853" lon="0.98483">
        <ele>37</ele>
        <time>2016-07-09T10:15:14Z</time>
      </trkpt>
      <trkpt lat="49.3184" lon="0.9847">
        <ele>38</ele>
        <time>2016-07-09T10:15:18Z</time>
      </trkpt>
      <trkpt lat="49.3184" lon="0.98448">
        <ele>42</ele>
        <time>2016-07-09T10:16:00Z</time>
      </trkpt>
      <trkpt lat="49.31853" lon="0.98433">
        <ele>41</ele>
        <time>2016-07-09T10:16:05Z</time>
      </trkpt>
      <trkpt lat="49.31863" lon="0.98418">
        <ele>41</ele>
        <time>2016-07-09T10:16:09Z</time>
      </trkpt>
      <trkpt lat="49.3187" lon="0.984">
        <ele>41</ele>
        <time>2016-07-09T10:16:13Z</time>
      </trkpt>
      <trkpt lat="49.3188" lon="0.98383">
        <ele>41</ele>
        <time>2016-07-09T10:16:18Z</time>
      </trkpt>
      <trkpt lat="49.31893" lon="0.98365">
        <ele>40</ele>
        <time>2016-07-09T10:16:23Z</time>
      </trkpt>
      <trkpt lat="49.31903" lon="0.98348">
        <ele>41</ele>
        <time>2016-07-09T10:16:27Z</time>
      </trkpt>
      <trkpt lat="49.31918" lon="0.98325">
        <ele>42</ele>
        <time>2016-07-09T10:16:34Z</time>
      </trkpt>
      <trkpt lat="49.3193" lon="0.98308">
        <ele>42</ele>
        <time>2016-07-09T10:16:40Z</time>
      </trkpt>
      <trkpt lat="49.31945" lon="0.9829">
        <ele>40</ele>
        <time>2016-07-09T10:16:45Z</time>
      </trkpt>
      <trkpt lat="49.3196" lon="0.98273">
        <ele>40</ele>
        <time>2016-07-09T10:16:49Z</time>
      </trkpt>
      <trkpt lat="49.31973" lon="0.98258">
        <ele>40</ele>
        <time>2016-07-09T10:16:54Z</time>
      </trkpt>
      <trkpt lat="49.31985" lon="0.98238">
        <ele>41</ele>
        <time>2016-07-09T10:16:58Z</time>
      </trkpt>
      <trkpt lat="49.31998" lon="0.98223">
        <ele>40</ele>
        <time>2016-07-09T10:17:01Z</time>
      </trkpt>
      <trkpt lat="49.32015" lon="0.98198">
        <ele>41</ele>
        <time>2016-07-09T10:17:07Z</time>
      </trkpt>
      <trkpt lat="49.32028" lon="0.98188">
        <ele>41</ele>
        <time>2016-07-09T10:17:11Z</time>
      </trkpt>
      <trkpt lat="49.3204" lon="0.98168">
        <ele>40</ele>
        <time>2016-07-09T10:17:15Z</time>
      </trkpt>
      <trkpt lat="49.32053" lon="0.98155">
        <ele>40</ele>
        <time>2016-07-09T10:17:21Z</time>
      </trkpt>
      <trkpt lat="49.32068" lon="0.98158">
        <ele>39</ele>
        <time>2016-07-09T10:17:28Z</time>
      </trkpt>
      <trkpt lat="49.32078" lon="0.9814">
        <ele>37</ele>
        <time>2016-07-09T10:17:34Z</time>
      </trkpt>
      <trkpt lat="49.32088" lon="0.98123">
        <ele>37</ele>
        <time>2016-07-09T10:17:38Z</time>
      </trkpt>
      <trkpt lat="49.321" lon="0.98113">
        <ele>37</ele>
        <time>2016-07-09T10:17:42Z</time>
      </trkpt>
      <trkpt lat="49.32113" lon="0.981">
        <ele>36</ele>
        <time>2016-07-09T10:17:46Z</time>
      </trkpt>
      <trkpt lat="49.3213" lon="0.9808">
        <ele>36</ele>
        <time>2016-07-09T10:17:51Z</time>
      </trkpt>
      <trkpt lat="49.32143" lon="0.9807">
        <ele>37</ele>
        <time>2016-07-09T10:17:55Z</time>
      </trkpt>
      <trkpt lat="49.3216" lon="0.9806">
        <ele>37</ele>
        <time>2016-07-09T10:18:01Z</time>
      </trkpt>
      <trkpt lat="49.32175" lon="0.98053">
        <ele>37</ele>
        <time>2016-07-09T10:18:05Z</time>
      </trkpt>
      <trkpt lat="49.3219" lon="0.98048">
        <ele>37</ele>
        <time>2016-07-09T10:18:09Z</time>
      </trkpt>
      <trkpt lat="49.32208" lon="0.98048">
        <ele>36</ele>
        <time>2016-07-09T10:18:14Z</time>
      </trkpt>
      <trkpt lat="49.32223" lon="0.98048">
        <ele>35</ele>
        <time>2016-07-09T10:18:19Z</time>
      </trkpt>
      <trkpt lat="49.3224" lon="0.98055">
        <ele>34</ele>
        <time>2016-07-09T10:18:25Z</time>
      </trkpt>
      <trkpt lat="49.32255" lon="0.98058">
        <ele>34</ele>
        <time>2016-07-09T10:18:31Z</time>
      </trkpt>
      <trkpt lat="49.3227" lon="0.98068">
        <ele>33</ele>
        <time>2016-07-09T10:18:36Z</time>
      </trkpt>
      <trkpt lat="49.32285" lon="0.9808">
        <ele>34</ele>
        <time>2016-07-09T10:18:42Z</time>
      </trkpt>
      <trkpt lat="49.32298" lon="0.9809">
        <ele>33</ele>
        <time>2016-07-09T10:18:46Z</time>
      </trkpt>
      <trkpt lat="49.32313" lon="0.981">
        <ele>33</ele>
        <time>2016-07-09T10:18:51Z</time>
      </trkpt>
      <trkpt lat="49.32323" lon="0.98118">
        <ele>33</ele>
        <time>2016-07-09T10:18:56Z</time>
      </trkpt>
      <trkpt lat="49.32328" lon="0.9814">
        <ele>34</ele>
        <time>2016-07-09T10:19:03Z</time>
      </trkpt>
      <trkpt lat="49.32338" lon="0.9816">
        <ele>36</ele>
        <time>2016-07-09T10:19:10Z</time>
      </trkpt>
      <trkpt lat="49.32345" lon="0.98183">
        <ele>38</ele>
        <time>2016-07-09T10:19:17Z</time>
      </trkpt>
      <trkpt lat="49.32355" lon="0.98198">
        <ele>38</ele>
        <time>2016-07-09T10:19:25Z</time>
      </trkpt>
      <trkpt lat="49.32393" lon="0.9822">
        <ele>36</ele>
        <time>2016-07-09T10:20:35Z</time>
      </trkpt>
      <trkpt lat="49.32413" lon="0.98233">
        <ele>36</ele>
        <time>2016-07-09T10:21:03Z</time>
      </trkpt>
      <trkpt lat="49.32423" lon="0.98215">
        <ele>36</ele>
        <time>2016-07-09T10:21:08Z</time>
      </trkpt>
      <trkpt lat="49.32435" lon="0.982">
        <ele>36</ele>
        <time>2016-07-09T10:21:12Z</time>
      </trkpt>
      <trkpt lat="49.32445" lon="0.98185">
        <ele>36</ele>
        <time>2016-07-09T10:21:15Z</time>
      </trkpt>
      <trkpt lat="49.32458" lon="0.9817">
        <ele>37</ele>
        <time>2016-07-09T10:21:20Z</time>
      </trkpt>
      <trkpt lat="49.32478" lon="0.98135">
        <ele>35</ele>
        <time>2016-07-09T10:21:44Z</time>
      </trkpt>
      <trkpt lat="49.3249" lon="0.9812">
        <ele>32</ele>
        <time>2016-07-09T10:21:51Z</time>
      </trkpt>
      <trkpt lat="49.325" lon="0.98105">
        <ele>31</ele>
        <time>2016-07-09T10:21:55Z</time>
      </trkpt>
      <trkpt lat="49.32513" lon="0.98085">
        <ele>30</ele>
        <time>2016-07-09T10:22:03Z</time>
      </trkpt>
      <trkpt lat="49.32525" lon="0.9807">
        <ele>30</ele>
        <time>2016-07-09T10:22:09Z</time>
      </trkpt>
      <trkpt lat="49.3254" lon="0.98055">
        <ele>30</ele>
        <time>2016-07-09T10:22:16Z</time>
      </trkpt>
      <trkpt lat="49.32555" lon="0.98048">
        <ele>32</ele>
        <time>2016-07-09T10:22:23Z</time>
      </trkpt>
      <trkpt lat="49.32568" lon="0.98038">
        <ele>33</ele>
        <time>2016-07-09T10:22:30Z</time>
      </trkpt>
      <trkpt lat="49.3257" lon="0.98015">
        <ele>35</ele>
        <time>2016-07-09T10:22:38Z</time>
      </trkpt>
      <trkpt lat="49.32575" lon="0.97995">
        <ele>35</ele>
        <time>2016-07-09T10:22:44Z</time>
      </trkpt>
      <trkpt lat="49.32598" lon="0.97968">
        <ele>45</ele>
        <time>2016-07-09T10:25:27Z</time>
      </trkpt>
      <trkpt lat="49.32613" lon="0.9796">
        <ele>43</ele>
        <time>2016-07-09T10:25:40Z</time>
      </trkpt>
      <trkpt lat="49.32625" lon="0.9795">
        <ele>41</ele>
        <time>2016-07-09T10:25:46Z</time>
      </trkpt>
      <trkpt lat="49.3263" lon="0.9793">
        <ele>39</ele>
        <time>2016-07-09T10:25:52Z</time>
      </trkpt>
      <trkpt lat="49.3264" lon="0.97915">
        <ele>38</ele>
        <time>2016-07-09T10:25:58Z</time>
      </trkpt>
      <trkpt lat="49.32655" lon="0.97903">
        <ele>38</ele>
        <time>2016-07-09T10:26:06Z</time>
      </trkpt>
      <trkpt lat="49.3267" lon="0.97893">
        <ele>38</ele>
        <time>2016-07-09T10:26:10Z</time>
      </trkpt>
      <trkpt lat="49.32683" lon="0.97883">
        <ele>37</ele>
        <time>2016-07-09T10:26:15Z</time>
      </trkpt>
      <trkpt lat="49.32693" lon="0.97868">
        <ele>37</ele>
        <time>2016-07-09T10:26:20Z</time>
      </trkpt>
      <trkpt lat="49.32705" lon="0.9785">
        <ele>33</ele>
        <time>2016-07-09T10:26:55Z</time>
      </trkpt>
      <trkpt lat="49.32718" lon="0.9784">
        <ele>33</ele>
        <time>2016-07-09T10:27:02Z</time>
      </trkpt>
      <trkpt lat="49.3273" lon="0.97828">
        <ele>33</ele>
        <time>2016-07-09T10:27:07Z</time>
      </trkpt>
      <trkpt lat="49.32745" lon="0.9783">
        <ele>34</ele>
        <time>2016-07-09T10:27:19Z</time>
      </trkpt>
      <trkpt lat="49.32758" lon="0.97843">
        <ele>33</ele>
        <time>2016-07-09T10:27:24Z</time>
      </trkpt>
      <trkpt lat="49.3277" lon="0.97855">
        <ele>31</ele>
        <time>2016-07-09T10:27:29Z</time>
      </trkpt>
      <trkpt lat="49.32775" lon="0.97878">
        <ele>31</ele>
        <time>2016-07-09T10:27:37Z</time>
      </trkpt>
      <trkpt lat="49.32783" lon="0.97898">
        <ele>32</ele>
        <time>2016-07-09T10:27:41Z</time>
      </trkpt>
      <trkpt lat="49.3278" lon="0.97923">
        <ele>32</ele>
        <time>2016-07-09T10:27:47Z</time>
      </trkpt>
      <trkpt lat="49.32775" lon="0.9795">
        <ele>32</ele>
        <time>2016-07-09T10:27:53Z</time>
      </trkpt>
      <trkpt lat="49.32768" lon="0.97968">
        <ele>32</ele>
        <time>2016-07-09T10:27:58Z</time>
      </trkpt>
      <trkpt lat="49.32763" lon="0.9799">
        <ele>31</ele>
        <time>2016-07-09T10:28:03Z</time>
      </trkpt>
      <trkpt lat="49.32758" lon="0.98013">
        <ele>30</ele>
        <time>2016-07-09T10:28:08Z</time>
      </trkpt>
      <trkpt lat="49.32748" lon="0.98033">
        <ele>29</ele>
        <time>2016-07-09T10:28:13Z</time>
      </trkpt>
      <trkpt lat="49.32743" lon="0.98058">
        <ele>29</ele>
        <time>2016-07-09T10:28:19Z</time>
      </trkpt>
      <trkpt lat="49.32735" lon="0.9808">
        <ele>28</ele>
        <time>2016-07-09T10:28:26Z</time>
      </trkpt>
      <trkpt lat="49.32725" lon="0.98095">
        <ele>29</ele>
        <time>2016-07-09T10:28:31Z</time>
      </trkpt>
      <trkpt lat="49.32713" lon="0.98105">
        <ele>32</ele>
        <time>2016-07-09T10:28:36Z</time>
      </trkpt>
      <trkpt lat="49.32688" lon="0.98143">
        <ele>38</ele>
        <time>2016-07-09T10:28:53Z</time>
      </trkpt>
      <trkpt lat="49.32675" lon="0.98158">
        <ele>41</ele>
        <time>2016-07-09T10:29:00Z</time>
      </trkpt>
      <trkpt lat="49.32653" lon="0.98188">
        <ele>46</ele>
        <time>2016-07-09T10:29:23Z</time>
      </trkpt>
      <trkpt lat="49.3264" lon="0.982">
        <ele>48</ele>
        <time>2016-07-09T10:29:32Z</time>
      </trkpt>
      <trkpt lat="49.32613" lon="0.98228">
        <ele>50</ele>
        <time>2016-07-09T10:29:49Z</time>
      </trkpt>
      <trkpt lat="49.32593" lon="0.98248">
        <ele>53</ele>
        <time>2016-07-09T10:30:01Z</time>
      </trkpt>
      <trkpt lat="49.3257" lon="0.9826">
        <ele>56</ele>
        <time>2016-07-09T10:30:12Z</time>
      </trkpt>
      <trkpt lat="49.32555" lon="0.98265">
        <ele>58</ele>
        <time>2016-07-09T10:30:19Z</time>
      </trkpt>
      <trkpt lat="49.32563" lon="0.98283">
        <ele>59</ele>
        <time>2016-07-09T10:31:22Z</time>
      </trkpt>
      <trkpt lat="49.32578" lon="0.98278">
        <ele>59</ele>
        <time>2016-07-09T10:31:28Z</time>
      </trkpt>
      <trkpt lat="49.32593" lon="0.98273">
        <ele>58</ele>
        <time>2016-07-09T10:31:34Z</time>
      </trkpt>
      <trkpt lat="49.32608" lon="0.9827">
        <ele>58</ele>
        <time>2016-07-09T10:31:40Z</time>
      </trkpt>
      <trkpt lat="49.32623" lon="0.9826">
        <ele>58</ele>
        <time>2016-07-09T10:31:46Z</time>
      </trkpt>
      <trkpt lat="49.32633" lon="0.98245">
        <ele>58</ele>
        <time>2016-07-09T10:31:51Z</time>
      </trkpt>
      <trkpt lat="49.32648" lon="0.98238">
        <ele>58</ele>
        <time>2016-07-09T10:31:55Z</time>
      </trkpt>
      <trkpt lat="49.3266" lon="0.98228">
        <ele>57</ele>
        <time>2016-07-09T10:32:00Z</time>
      </trkpt>
      <trkpt lat="49.32678" lon="0.98218">
        <ele>56</ele>
        <time>2016-07-09T10:32:08Z</time>
      </trkpt>
      <trkpt lat="49.32708" lon="0.98193">
        <ele>59</ele>
        <time>2016-07-09T10:33:15Z</time>
      </trkpt>
      <trkpt lat="49.32713" lon="0.98173">
        <ele>56</ele>
        <time>2016-07-09T10:33:21Z</time>
      </trkpt>
      <trkpt lat="49.32718" lon="0.98153">
        <ele>55</ele>
        <time>2016-07-09T10:33:25Z</time>
      </trkpt>
      <trkpt lat="49.3273" lon="0.98138">
        <ele>55</ele>
        <time>2016-07-09T10:33:32Z</time>
      </trkpt>
      <trkpt lat="49.32743" lon="0.98125">
        <ele>54</ele>
        <time>2016-07-09T10:33:38Z</time>
      </trkpt>
      <trkpt lat="49.32753" lon="0.98108">
        <ele>53</ele>
        <time>2016-07-09T10:33:46Z</time>
      </trkpt>
      <trkpt lat="49.32765" lon="0.9809">
        <ele>52</ele>
        <time>2016-07-09T10:33:52Z</time>
      </trkpt>
      <trkpt lat="49.32778" lon="0.9808">
        <ele>53</ele>
        <time>2016-07-09T10:33:58Z</time>
      </trkpt>
      <trkpt lat="49.32788" lon="0.98065">
        <ele>54</ele>
        <time>2016-07-09T10:34:05Z</time>
      </trkpt>
      <trkpt lat="49.328" lon="0.98055">
        <ele>56</ele>
        <time>2016-07-09T10:34:13Z</time>
      </trkpt>
      <trkpt lat="49.32813" lon="0.9804">
        <ele>58</ele>
        <time>2016-07-09T10:34:19Z</time>
      </trkpt>
      <trkpt lat="49.32825" lon="0.98023">
        <ele>59</ele>
        <time>2016-07-09T10:34:28Z</time>
      </trkpt>
      <trkpt lat="49.32838" lon="0.98008">
        <ele>61</ele>
        <time>2016-07-09T10:34:34Z</time>
      </trkpt>
      <trkpt lat="49.32843" lon="0.97985">
        <ele>62</ele>
        <time>2016-07-09T10:34:41Z</time>
      </trkpt>
      <trkpt lat="49.3285" lon="0.97965">
        <ele>63</ele>
        <time>2016-07-09T10:34:46Z</time>
      </trkpt>
      <trkpt lat="49.3285" lon="0.9794">
        <ele>63</ele>
        <time>2016-07-09T10:34:51Z</time>
      </trkpt>
      <trkpt lat="49.32855" lon="0.9791">
        <ele>65</ele>
        <time>2016-07-09T10:35:01Z</time>
      </trkpt>
      <trkpt lat="49.32865" lon="0.97893">
        <ele>66</ele>
        <time>2016-07-09T10:35:08Z</time>
      </trkpt>
      <trkpt lat="49.32863" lon="0.9787">
        <ele>66</ele>
        <time>2016-07-09T10:35:14Z</time>
      </trkpt>
      <trkpt lat="49.3287" lon="0.97853">
        <ele>65</ele>
        <time>2016-07-09T10:35:18Z</time>
      </trkpt>
      <trkpt lat="49.32878" lon="0.9783">
        <ele>64</ele>
        <time>2016-07-09T10:35:24Z</time>
      </trkpt>
      <trkpt lat="49.32878" lon="0.97808">
        <ele>64</ele>
        <time>2016-07-09T10:35:29Z</time>
      </trkpt>
      <trkpt lat="49.32873" lon="0.97783">
        <ele>64</ele>
        <time>2016-07-09T10:35:33Z</time>
      </trkpt>
      <trkpt lat="49.3287" lon="0.9776">
        <ele>63</ele>
        <time>2016-07-09T10:35:36Z</time>
      </trkpt>
      <trkpt lat="49.32863" lon="0.97738">
        <ele>63</ele>
        <time>2016-07-09T10:35:40Z</time>
      </trkpt>
      <trkpt lat="49.32858" lon="0.97718">
        <ele>62</ele>
        <time>2016-07-09T10:35:45Z</time>
      </trkpt>
      <trkpt lat="49.3284" lon="0.97708">
        <ele>66</ele>
        <time>2016-07-09T10:36:40Z</time>
      </trkpt>
      <trkpt lat="49.3283" lon="0.97723">
        <ele>61</ele>
        <time>2016-07-09T10:36:46Z</time>
      </trkpt>
      <trkpt lat="49.3282" lon="0.97708">
        <ele>57</ele>
        <time>2016-07-09T10:36:59Z</time>
      </trkpt>
      <trkpt lat="49.32808" lon="0.97693">
        <ele>56</ele>
        <time>2016-07-09T10:37:05Z</time>
      </trkpt>
      <trkpt lat="49.32795" lon="0.97678">
        <ele>56</ele>
        <time>2016-07-09T10:37:08Z</time>
      </trkpt>
      <trkpt lat="49.32785" lon="0.9766">
        <ele>55</ele>
        <time>2016-07-09T10:37:12Z</time>
      </trkpt>
      <trkpt lat="49.32778" lon="0.9764">
        <ele>54</ele>
        <time>2016-07-09T10:37:16Z</time>
      </trkpt>
      <trkpt lat="49.32773" lon="0.9762">
        <ele>52</ele>
        <time>2016-07-09T10:37:22Z</time>
      </trkpt>
      <trkpt lat="49.32765" lon="0.976">
        <ele>51</ele>
        <time>2016-07-09T10:37:27Z</time>
      </trkpt>
      <trkpt lat="49.32758" lon="0.9758">
        <ele>50</ele>
        <time>2016-07-09T10:37:32Z</time>
      </trkpt>
      <trkpt lat="49.3276" lon="0.97558">
        <ele>49</ele>
        <time>2016-07-09T10:37:38Z</time>
      </trkpt>
      <trkpt lat="49.32758" lon="0.97525">
        <ele>48</ele>
        <time>2016-07-09T10:37:45Z</time>
      </trkpt>
      <trkpt lat="49.32758" lon="0.975">
        <ele>48</ele>
        <time>2016-07-09T10:37:51Z</time>
      </trkpt>
      <trkpt lat="49.32755" lon="0.97475">
        <ele>45</ele>
        <time>2016-07-09T10:37:59Z</time>
      </trkpt>
      <trkpt lat="49.32768" lon="0.9746">
        <ele>45</ele>
        <time>2016-07-09T10:38:10Z</time>
      </trkpt>
      <trkpt lat="49.3278" lon="0.9745">
        <ele>43</ele>
        <time>2016-07-09T10:38:19Z</time>
      </trkpt>
      <trkpt lat="49.32793" lon="0.9746">
        <ele>44</ele>
        <time>2016-07-09T10:38:28Z</time>
      </trkpt>
      <trkpt lat="49.328" lon="0.97478">
        <ele>45</ele>
        <time>2016-07-09T10:38:33Z</time>
      </trkpt>
      <trkpt lat="49.32808" lon="0.97495">
        <ele>46</ele>
        <time>2016-07-09T10:38:38Z</time>
      </trkpt>
      <trkpt lat="49.32818" lon="0.9751">
        <ele>46</ele>
        <time>2016-07-09T10:38:44Z</time>
      </trkpt>
      <trkpt lat="49.32825" lon="0.9753">
        <ele>46</ele>
        <time>2016-07-09T10:38:49Z</time>
      </trkpt>
      <trkpt lat="49.3283" lon="0.9755">
        <ele>48</ele>
        <time>2016-07-09T10:38:55Z</time>
      </trkpt>
      <trkpt lat="49.32835" lon="0.9757">
        <ele>48</ele>
        <time>2016-07-09T10:39:00Z</time>
      </trkpt>
      <trkpt lat="49.32838" lon="0.97595">
        <ele>48</ele>
        <time>2016-07-09T10:39:06Z</time>
      </trkpt>
      <trkpt lat="49.32845" lon="0.97613">
        <ele>49</ele>
        <time>2016-07-09T10:39:11Z</time>
      </trkpt>
      <trkpt lat="49.3285" lon="0.97633">
        <ele>51</ele>
        <time>2016-07-09T10:39:18Z</time>
      </trkpt>
      <trkpt lat="49.3286" lon="0.97653">
        <ele>52</ele>
        <time>2016-07-09T10:39:35Z</time>
      </trkpt>
      <trkpt lat="49.32873" lon="0.97665">
        <ele>51</ele>
        <time>2016-07-09T10:39:41Z</time>
      </trkpt>
      <trkpt lat="49.32888" lon="0.97685">
        <ele>51</ele>
        <time>2016-07-09T10:39:49Z</time>
      </trkpt>
      <trkpt lat="49.32895" lon="0.97703">
        <ele>51</ele>
        <time>2016-07-09T10:39:53Z</time>
      </trkpt>
      <trkpt lat="49.32905" lon="0.97723">
        <ele>53</ele>
        <time>2016-07-09T10:39:59Z</time>
      </trkpt>
      <trkpt lat="49.32915" lon="0.97738">
        <ele>53</ele>
        <time>2016-07-09T10:40:03Z</time>
      </trkpt>
      <trkpt lat="49.3292" lon="0.97758">
        <ele>55</ele>
        <time>2016-07-09T10:40:09Z</time>
      </trkpt>
      <trkpt lat="49.32905" lon="0.9776">
        <ele>67</ele>
        <time>2016-07-09T10:41:35Z</time>
      </trkpt>
      <trkpt lat="49.329" lon="0.9778">
        <ele>65</ele>
        <time>2016-07-09T10:41:43Z</time>
      </trkpt>
      <trkpt lat="49.3291" lon="0.97798">
        <ele>66</ele>
        <time>2016-07-09T10:41:51Z</time>
      </trkpt>
      <trkpt lat="49.32908" lon="0.9782">
        <ele>67</ele>
        <time>2016-07-09T10:41:59Z</time>
      </trkpt>
      <trkpt lat="49.3291" lon="0.97843">
        <ele>70</ele>
        <time>2016-07-09T10:42:07Z</time>
      </trkpt>
      <trkpt lat="49.32913" lon="0.97875">
        <ele>81</ele>
        <time>2016-07-09T10:43:31Z</time>
      </trkpt>
      <trkpt lat="49.3291" lon="0.97898">
        <ele>80</ele>
        <time>2016-07-09T10:43:40Z</time>
      </trkpt>
      <trkpt lat="49.329" lon="0.97933">
        <ele>79</ele>
        <time>2016-07-09T10:43:57Z</time>
      </trkpt>
      <trkpt lat="49.32908" lon="0.97963">
        <ele>75</ele>
        <time>2016-07-09T10:44:54Z</time>
      </trkpt>
      <trkpt lat="49.32923" lon="0.97955">
        <ele>71</ele>
        <time>2016-07-09T10:45:02Z</time>
      </trkpt>
      <trkpt lat="49.32925" lon="0.9798">
        <ele>71</ele>
        <time>2016-07-09T10:45:11Z</time>
      </trkpt>
      <trkpt lat="49.32933" lon="0.98">
        <ele>70</ele>
        <time>2016-07-09T10:45:17Z</time>
      </trkpt>
      <trkpt lat="49.32933" lon="0.98025">
        <ele>71</ele>
        <time>2016-07-09T10:45:23Z</time>
      </trkpt>
      <trkpt lat="49.32935" lon="0.98048">
        <ele>70</ele>
        <time>2016-07-09T10:45:28Z</time>
      </trkpt>
      <trkpt lat="49.32938" lon="0.9807">
        <ele>70</ele>
        <time>2016-07-09T10:45:37Z</time>
      </trkpt>
      <trkpt lat="49.32935" lon="0.98103">
        <ele>72</ele>
        <time>2016-07-09T10:45:44Z</time>
      </trkpt>
      <trkpt lat="49.32938" lon="0.98128">
        <ele>73</ele>
        <time>2016-07-09T10:45:50Z</time>
      </trkpt>
      <trkpt lat="49.32935" lon="0.9815">
        <ele>74</ele>
        <time>2016-07-09T10:45:56Z</time>
      </trkpt>
      <trkpt lat="49.3294" lon="0.9817">
        <ele>75</ele>
        <time>2016-07-09T10:46:02Z</time>
      </trkpt>
      <trkpt lat="49.32948" lon="0.98193">
        <ele>78</ele>
        <time>2016-07-09T10:46:12Z</time>
      </trkpt>
      <trkpt lat="49.32965" lon="0.98168">
        <ele>90</ele>
        <time>2016-07-09T10:51:53Z</time>
      </trkpt>
      <trkpt lat="49.3297" lon="0.98145">
        <ele>88</ele>
        <time>2016-07-09T10:51:59Z</time>
      </trkpt>
      <trkpt lat="49.32978" lon="0.98125">
        <ele>85</ele>
        <time>2016-07-09T10:52:04Z</time>
      </trkpt>
      <trkpt lat="49.3298" lon="0.98103">
        <ele>82</ele>
        <time>2016-07-09T10:52:10Z</time>
      </trkpt>
      <trkpt lat="49.32988" lon="0.98083">
        <ele>80</ele>
        <time>2016-07-09T10:52:17Z</time>
      </trkpt>
      <trkpt lat="49.32993" lon="0.98063">
        <ele>80</ele>
        <time>2016-07-09T10:52:21Z</time>
      </trkpt>
      <trkpt lat="49.32998" lon="0.9804">
        <ele>77</ele>
        <time>2016-07-09T10:52:26Z</time>
      </trkpt>
      <trkpt lat="49.33008" lon="0.98025">
        <ele>76</ele>
        <time>2016-07-09T10:52:30Z</time>
      </trkpt>
      <trkpt lat="49.33013" lon="0.98">
        <ele>73</ele>
        <time>2016-07-09T10:52:35Z</time>
      </trkpt>
      <trkpt lat="49.33015" lon="0.97973">
        <ele>70</ele>
        <time>2016-07-09T10:52:40Z</time>
      </trkpt>
      <trkpt lat="49.33015" lon="0.97948">
        <ele>69</ele>
        <time>2016-07-09T10:52:44Z</time>
      </trkpt>
      <trkpt lat="49.33023" lon="0.9793">
        <ele>69</ele>
        <time>2016-07-09T10:52:49Z</time>
      </trkpt>
      <trkpt lat="49.33035" lon="0.97918">
        <ele>69</ele>
        <time>2016-07-09T10:52:54Z</time>
      </trkpt>
      <trkpt lat="49.3304" lon="0.97893">
        <ele>66</ele>
        <time>2016-07-09T10:52:59Z</time>
      </trkpt>
      <trkpt lat="49.33048" lon="0.97873">
        <ele>65</ele>
        <time>2016-07-09T10:53:04Z</time>
      </trkpt>
      <trkpt lat="49.33063" lon="0.97865">
        <ele>65</ele>
        <time>2016-07-09T10:53:10Z</time>
      </trkpt>
      <trkpt lat="49.33078" lon="0.97853">
        <ele>65</ele>
        <time>2016-07-09T10:53:16Z</time>
      </trkpt>
      <trkpt lat="49.33093" lon="0.97848">
        <ele>67</ele>
        <time>2016-07-09T10:53:23Z</time>
      </trkpt>
      <trkpt lat="49.33108" lon="0.97853">
        <ele>68</ele>
        <time>2016-07-09T10:53:28Z</time>
      </trkpt>
      <trkpt lat="49.33123" lon="0.97843">
        <ele>69</ele>
        <time>2016-07-09T10:53:33Z</time>
      </trkpt>
      <trkpt lat="49.33138" lon="0.97845">
        <ele>69</ele>
        <time>2016-07-09T10:53:39Z</time>
      </trkpt>
      <trkpt lat="49.33153" lon="0.97848">
        <ele>72</ele>
        <time>2016-07-09T10:53:47Z</time>
      </trkpt>
      <trkpt lat="49.33168" lon="0.97855">
        <ele>75</ele>
        <time>2016-07-09T10:53:54Z</time>
      </trkpt>
      <trkpt lat="49.3318" lon="0.9787">
        <ele>76</ele>
        <time>2016-07-09T10:54:01Z</time>
      </trkpt>
      <trkpt lat="49.33193" lon="0.97883">
        <ele>77</ele>
        <time>2016-07-09T10:54:06Z</time>
      </trkpt>
      <trkpt lat="49.33213" lon="0.97903">
        <ele>75</ele>
        <time>2016-07-09T10:54:11Z</time>
      </trkpt>
      <trkpt lat="49.33228" lon="0.97923">
        <ele>77</ele>
        <time>2016-07-09T10:54:17Z</time>
      </trkpt>
      <trkpt lat="49.33238" lon="0.9794">
        <ele>77</ele>
        <time>2016-07-09T10:54:21Z</time>
      </trkpt>
      <trkpt lat="49.3325" lon="0.9796">
        <ele>76</ele>
        <time>2016-07-09T10:54:27Z</time>
      </trkpt>
      <trkpt lat="49.3326" lon="0.97978">
        <ele>75</ele>
        <time>2016-07-09T10:54:31Z</time>
      </trkpt>
      <trkpt lat="49.33268" lon="0.97995">
        <ele>76</ele>
        <time>2016-07-09T10:54:34Z</time>
      </trkpt>
      <trkpt lat="49.33278" lon="0.98015">
        <ele>78</ele>
        <time>2016-07-09T10:54:38Z</time>
      </trkpt>
      <trkpt lat="49.33285" lon="0.98038">
        <ele>79</ele>
        <time>2016-07-09T10:54:43Z</time>
      </trkpt>
      <trkpt lat="49.333" lon="0.98055">
        <ele>77</ele>
        <time>2016-07-09T10:54:47Z</time>
      </trkpt>
      <trkpt lat="49.33313" lon="0.98073">
        <ele>75</ele>
        <time>2016-07-09T10:54:52Z</time>
      </trkpt>
      <trkpt lat="49.3333" lon="0.98088">
        <ele>74</ele>
        <time>2016-07-09T10:56:20Z</time>
      </trkpt>
      <trkpt lat="49.33333" lon="0.98113">
        <ele>75</ele>
        <time>2016-07-09T10:56:28Z</time>
      </trkpt>
      <trkpt lat="49.33333" lon="0.98138">
        <ele>76</ele>
        <time>2016-07-09T10:56:35Z</time>
      </trkpt>
      <trkpt lat="49.33338" lon="0.98158">
        <ele>78</ele>
        <time>2016-07-09T10:56:40Z</time>
      </trkpt>
      <trkpt lat="49.3334" lon="0.9818">
        <ele>80</ele>
        <time>2016-07-09T10:56:46Z</time>
      </trkpt>
      <trkpt lat="49.3336" lon="0.98185">
        <ele>87</ele>
        <time>2016-07-09T10:58:05Z</time>
      </trkpt>
      <trkpt lat="49.3336" lon="0.98163">
        <ele>87</ele>
        <time>2016-07-09T10:58:11Z</time>
      </trkpt>
      <trkpt lat="49.33358" lon="0.9814">
        <ele>87</ele>
        <time>2016-07-09T10:58:16Z</time>
      </trkpt>
      <trkpt lat="49.33355" lon="0.98115">
        <ele>86</ele>
        <time>2016-07-09T10:58:23Z</time>
      </trkpt>
      <trkpt lat="49.3336" lon="0.98093">
        <ele>85</ele>
        <time>2016-07-09T10:58:30Z</time>
      </trkpt>
      <trkpt lat="49.3336" lon="0.9807">
        <ele>85</ele>
        <time>2016-07-09T10:58:35Z</time>
      </trkpt>
      <trkpt lat="49.33355" lon="0.98048">
        <ele>84</ele>
        <time>2016-07-09T10:58:39Z</time>
      </trkpt>
      <trkpt lat="49.3335" lon="0.98025">
        <ele>85</ele>
        <time>2016-07-09T10:58:43Z</time>
      </trkpt>
      <trkpt lat="49.33355" lon="0.98">
        <ele>86</ele>
        <time>2016-07-09T10:58:49Z</time>
      </trkpt>
      <trkpt lat="49.33358" lon="0.97978">
        <ele>86</ele>
        <time>2016-07-09T10:58:54Z</time>
      </trkpt>
      <trkpt lat="49.33365" lon="0.9796">
        <ele>85</ele>
        <time>2016-07-09T10:58:59Z</time>
      </trkpt>
      <trkpt lat="49.33375" lon="0.97945">
        <ele>85</ele>
        <time>2016-07-09T10:59:06Z</time>
      </trkpt>
      <trkpt lat="49.33388" lon="0.97933">
        <ele>84</ele>
        <time>2016-07-09T10:59:25Z</time>
      </trkpt>
      <trkpt lat="49.33395" lon="0.97913">
        <ele>84</ele>
        <time>2016-07-09T10:59:34Z</time>
      </trkpt>
      <trkpt lat="49.33405" lon="0.97898">
        <ele>83</ele>
        <time>2016-07-09T10:59:40Z</time>
      </trkpt>
      <trkpt lat="49.33413" lon="0.9788">
        <ele>83</ele>
        <time>2016-07-09T10:59:44Z</time>
      </trkpt>
      <trkpt lat="49.33418" lon="0.97855">
        <ele>83</ele>
        <time>2016-07-09T10:59:49Z</time>
      </trkpt>
      <trkpt lat="49.33423" lon="0.9783">
        <ele>84</ele>
        <time>2016-07-09T10:59:56Z</time>
      </trkpt>
      <trkpt lat="49.33423" lon="0.97805">
        <ele>85</ele>
        <time>2016-07-09T11:00:02Z</time>
      </trkpt>
      <trkpt lat="49.33428" lon="0.97785">
        <ele>86</ele>
        <time>2016-07-09T11:00:08Z</time>
      </trkpt>
      <trkpt lat="49.3343" lon="0.97763">
        <ele>86</ele>
        <time>2016-07-09T11:00:13Z</time>
      </trkpt>
      <trkpt lat="49.3343" lon="0.97738">
        <ele>85</ele>
        <time>2016-07-09T11:00:18Z</time>
      </trkpt>
      <trkpt lat="49.33425" lon="0.97713">
        <ele>86</ele>
        <time>2016-07-09T11:00:24Z</time>
      </trkpt>
      <trkpt lat="49.33425" lon="0.9768">
        <ele>86</ele>
        <time>2016-07-09T11:00:30Z</time>
      </trkpt>
      <trkpt lat="49.33418" lon="0.97658">
        <ele>85</ele>
        <time>2016-07-09T11:00:35Z</time>
      </trkpt>
      <trkpt lat="49.33418" lon="0.97635">
        <ele>85</ele>
        <time>2016-07-09T11:00:39Z</time>
      </trkpt>
      <trkpt lat="49.33413" lon="0.97613">
        <ele>84</ele>
        <time>2016-07-09T11:00:44Z</time>
      </trkpt>
      <trkpt lat="49.33423" lon="0.97595">
        <ele>84</ele>
        <time>2016-07-09T11:00:53Z</time>
      </trkpt>
      <trkpt lat="49.33435" lon="0.97585">
        <ele>83</ele>
        <time>2016-07-09T11:00:59Z</time>
      </trkpt>
      <trkpt lat="49.33455" lon="0.9757">
        <ele>85</ele>
        <time>2016-07-09T11:01:21Z</time>
      </trkpt>
      <trkpt lat="49.33468" lon="0.97558">
        <ele>84</ele>
        <time>2016-07-09T11:01:28Z</time>
      </trkpt>
      <trkpt lat="49.3348" lon="0.97545">
        <ele>83</ele>
        <time>2016-07-09T11:01:35Z</time>
      </trkpt>
      <trkpt lat="49.33475" lon="0.97505">
        <ele>75</ele>
        <time>2016-07-09T11:01:52Z</time>
      </trkpt>
      <trkpt lat="49.33468" lon="0.97483">
        <ele>74</ele>
        <time>2016-07-09T11:01:57Z</time>
      </trkpt>
      <trkpt lat="49.33463" lon="0.97453">
        <ele>69</ele>
        <time>2016-07-09T11:02:14Z</time>
      </trkpt>
      <trkpt lat="49.33465" lon="0.9743">
        <ele>68</ele>
        <time>2016-07-09T11:02:20Z</time>
      </trkpt>
      <trkpt lat="49.3347" lon="0.9741">
        <ele>68</ele>
        <time>2016-07-09T11:02:26Z</time>
      </trkpt>
      <trkpt lat="49.33463" lon="0.9739">
        <ele>64</ele>
        <time>2016-07-09T11:02:43Z</time>
      </trkpt>
      <trkpt lat="49.33453" lon="0.97373">
        <ele>63</ele>
        <time>2016-07-09T11:02:50Z</time>
      </trkpt>
      <trkpt lat="49.33443" lon="0.97358">
        <ele>63</ele>
        <time>2016-07-09T11:02:54Z</time>
      </trkpt>
      <trkpt lat="49.3343" lon="0.9734">
        <ele>62</ele>
        <time>2016-07-09T11:03:00Z</time>
      </trkpt>
      <trkpt lat="49.3343" lon="0.97318">
        <ele>60</ele>
        <time>2016-07-09T11:03:08Z</time>
      </trkpt>
      <trkpt lat="49.33445" lon="0.97313">
        <ele>62</ele>
        <time>2016-07-09T11:03:17Z</time>
      </trkpt>
      <trkpt lat="49.3345" lon="0.97335">
        <ele>68</ele>
        <time>2016-07-09T11:04:49Z</time>
      </trkpt>
      <trkpt lat="49.33458" lon="0.97353">
        <ele>67</ele>
        <time>2016-07-09T11:04:57Z</time>
      </trkpt>
      <trkpt lat="49.3347" lon="0.97368">
        <ele>68</ele>
        <time>2016-07-09T11:05:05Z</time>
      </trkpt>
      <trkpt lat="49.33485" lon="0.97375">
        <ele>72</ele>
        <time>2016-07-09T11:05:18Z</time>
      </trkpt>
      <trkpt lat="49.33495" lon="0.9739">
        <ele>74</ele>
        <time>2016-07-09T11:05:23Z</time>
      </trkpt>
      <trkpt lat="49.33505" lon="0.97408">
        <ele>74</ele>
        <time>2016-07-09T11:05:31Z</time>
      </trkpt>
      <trkpt lat="49.3352" lon="0.97418">
        <ele>76</ele>
        <time>2016-07-09T11:05:36Z</time>
      </trkpt>
      <trkpt lat="49.33535" lon="0.9743">
        <ele>77</ele>
        <time>2016-07-09T11:05:42Z</time>
      </trkpt>
      <trkpt lat="49.33548" lon="0.9744">
        <ele>78</ele>
        <time>2016-07-09T11:05:47Z</time>
      </trkpt>
      <trkpt lat="49.3356" lon="0.9745">
        <ele>79</ele>
        <time>2016-07-09T11:05:52Z</time>
      </trkpt>
      <trkpt lat="49.33573" lon="0.9746">
        <ele>82</ele>
        <time>2016-07-09T11:05:58Z</time>
      </trkpt>
      <trkpt lat="49.33588" lon="0.97468">
        <ele>85</ele>
        <time>2016-07-09T11:06:05Z</time>
      </trkpt>
      <trkpt lat="49.33615" lon="0.9749">
        <ele>91</ele>
        <time>2016-07-09T11:08:01Z</time>
      </trkpt>
      <trkpt lat="49.33615" lon="0.97515">
        <ele>95</ele>
        <time>2016-07-09T11:08:26Z</time>
      </trkpt>
      <trkpt lat="49.33605" lon="0.9753">
        <ele>94</ele>
        <time>2016-07-09T11:08:32Z</time>
      </trkpt>
      <trkpt lat="49.33615" lon="0.9757">
        <ele>96</ele>
        <time>2016-07-09T11:08:49Z</time>
      </trkpt>
      <trkpt lat="49.33618" lon="0.97593">
        <ele>96</ele>
        <time>2016-07-09T11:08:55Z</time>
      </trkpt>
      <trkpt lat="49.33633" lon="0.97605">
        <ele>91</ele>
        <time>2016-07-09T11:09:44Z</time>
      </trkpt>
      <trkpt lat="49.3364" lon="0.97625">
        <ele>91</ele>
        <time>2016-07-09T11:09:50Z</time>
      </trkpt>
      <trkpt lat="49.33645" lon="0.9765">
        <ele>92</ele>
        <time>2016-07-09T11:09:57Z</time>
      </trkpt>
      <trkpt lat="49.33655" lon="0.97668">
        <ele>94</ele>
        <time>2016-07-09T11:10:03Z</time>
      </trkpt>
      <trkpt lat="49.33668" lon="0.97683">
        <ele>96</ele>
        <time>2016-07-09T11:10:09Z</time>
      </trkpt>
      <trkpt lat="49.33678" lon="0.97698">
        <ele>97</ele>
        <time>2016-07-09T11:10:15Z</time>
      </trkpt>
      <trkpt lat="49.33693" lon="0.97708">
        <ele>99</ele>
        <time>2016-07-09T11:10:22Z</time>
      </trkpt>
      <trkpt lat="49.3371" lon="0.97723">
        <ele>105</ele>
        <time>2016-07-09T11:10:32Z</time>
      </trkpt>
      <trkpt lat="49.33735" lon="0.97745">
        <ele>114</ele>
        <time>2016-07-09T11:10:49Z</time>
      </trkpt>
      <trkpt lat="49.3375" lon="0.97743">
        <ele>111</ele>
        <time>2016-07-09T11:10:56Z</time>
      </trkpt>
      <trkpt lat="49.33763" lon="0.97733">
        <ele>96</ele>
        <time>2016-07-09T11:12:19Z</time>
      </trkpt>
      <trkpt lat="49.33773" lon="0.97718">
        <ele>99</ele>
        <time>2016-07-09T11:12:26Z</time>
      </trkpt>
      <trkpt lat="49.33773" lon="0.97695">
        <ele>104</ele>
        <time>2016-07-09T11:12:35Z</time>
      </trkpt>
      <trkpt lat="49.33765" lon="0.97678">
        <ele>109</ele>
        <time>2016-07-09T11:12:42Z</time>
      </trkpt>
      <trkpt lat="49.33755" lon="0.97663">
        <ele>113</ele>
        <time>2016-07-09T11:12:48Z</time>
      </trkpt>
      <trkpt lat="49.33743" lon="0.97653">
        <ele>114</ele>
        <time>2016-07-09T11:12:54Z</time>
      </trkpt>
      <trkpt lat="49.33733" lon="0.97633">
        <ele>114</ele>
        <time>2016-07-09T11:13:01Z</time>
      </trkpt>
      <trkpt lat="49.33733" lon="0.9761">
        <ele>115</ele>
        <time>2016-07-09T11:13:08Z</time>
      </trkpt>
      <trkpt lat="49.33735" lon="0.97588">
        <ele>114</ele>
        <time>2016-07-09T11:13:17Z</time>
      </trkpt>
      <trkpt lat="49.33723" lon="0.97575">
        <ele>125</ele>
        <time>2016-07-09T11:13:55Z</time>
      </trkpt>
      <trkpt lat="49.33708" lon="0.9758">
        <ele>123</ele>
        <time>2016-07-09T11:14:00Z</time>
      </trkpt>
      <trkpt lat="49.33703" lon="0.97603">
        <ele>120</ele>
        <time>2016-07-09T11:14:06Z</time>
      </trkpt>
      <trkpt lat="49.33705" lon="0.97625">
        <ele>117</ele>
        <time>2016-07-09T11:14:13Z</time>
      </trkpt>
      <trkpt lat="49.33713" lon="0.97648">
        <ele>115</ele>
        <time>2016-07-09T11:14:19Z</time>
      </trkpt>
      <trkpt lat="49.33723" lon="0.97665">
        <ele>113</ele>
        <time>2016-07-09T11:14:25Z</time>
      </trkpt>
      <trkpt lat="49.33738" lon="0.9768">
        <ele>112</ele>
        <time>2016-07-09T11:14:31Z</time>
      </trkpt>
      <trkpt lat="49.33753" lon="0.97698">
        <ele>112</ele>
        <time>2016-07-09T11:14:39Z</time>
      </trkpt>
      <trkpt lat="49.3376" lon="0.9772">
        <ele>115</ele>
        <time>2016-07-09T11:14:47Z</time>
      </trkpt>
      <trkpt lat="49.33765" lon="0.9774">
        <ele>114</ele>
        <time>2016-07-09T11:14:55Z</time>
      </trkpt>
      <trkpt lat="49.33763" lon="0.97763">
        <ele>114</ele>
        <time>2016-07-09T11:15:03Z</time>
      </trkpt>
      <trkpt lat="49.33758" lon="0.97783">
        <ele>113</ele>
        <time>2016-07-09T11:15:08Z</time>
      </trkpt>
      <trkpt lat="49.33753" lon="0.97805">
        <ele>111</ele>
        <time>2016-07-09T11:15:14Z</time>
      </trkpt>
      <trkpt lat="49.3374" lon="0.97818">
        <ele>112</ele>
        <time>2016-07-09T11:15:20Z</time>
      </trkpt>
      <trkpt lat="49.33725" lon="0.97818">
        <ele>113</ele>
        <time>2016-07-09T11:15:25Z</time>
      </trkpt>
      <trkpt lat="49.3371" lon="0.97818">
        <ele>114</ele>
        <time>2016-07-09T11:15:30Z</time>
      </trkpt>
      <trkpt lat="49.3369" lon="0.97815">
        <ele>115</ele>
        <time>2016-07-09T11:15:36Z</time>
      </trkpt>
      <trkpt lat="49.33675" lon="0.97813">
        <ele>117</ele>
        <time>2016-07-09T11:15:43Z</time>
      </trkpt>
      <trkpt lat="49.3366" lon="0.9781">
        <ele>118</ele>
        <time>2016-07-09T11:15:49Z</time>
      </trkpt>
      <trkpt lat="49.33645" lon="0.97805">
        <ele>119</ele>
        <time>2016-07-09T11:15:57Z</time>
      </trkpt>
      <trkpt lat="49.3363" lon="0.97803">
        <ele>123</ele>
        <time>2016-07-09T11:16:07Z</time>
      </trkpt>
      <trkpt lat="49.33618" lon="0.97813">
        <ele>124</ele>
        <time>2016-07-09T11:16:14Z</time>
      </trkpt>
      <trkpt lat="49.33605" lon="0.97823">
        <ele>125</ele>
        <time>2016-07-09T11:16:18Z</time>
      </trkpt>
      <trkpt lat="49.33595" lon="0.97838">
        <ele>126</ele>
        <time>2016-07-09T11:16:24Z</time>
      </trkpt>
      <trkpt lat="49.33585" lon="0.97855">
        <ele>126</ele>
        <time>2016-07-09T11:16:32Z</time>
      </trkpt>
      <trkpt lat="49.33585" lon="0.97833">
        <ele>126</ele>
        <time>2016-07-09T11:16:58Z</time>
      </trkpt>
      <trkpt lat="49.33578" lon="0.9781">
        <ele>124</ele>
        <time>2016-07-09T11:17:02Z</time>
      </trkpt>
      <trkpt lat="49.33563" lon="0.9779">
        <ele>122</ele>
        <time>2016-07-09T11:17:09Z</time>
      </trkpt>
      <trkpt lat="49.3355" lon="0.97778">
        <ele>119</ele>
        <time>2016-07-09T11:17:14Z</time>
      </trkpt>
      <trkpt lat="49.33535" lon="0.97768">
        <ele>115</ele>
        <time>2016-07-09T11:17:20Z</time>
      </trkpt>
      <trkpt lat="49.3352" lon="0.97765">
        <ele>113</ele>
        <time>2016-07-09T11:17:24Z</time>
      </trkpt>
      <trkpt lat="49.33505" lon="0.97765">
        <ele>112</ele>
        <time>2016-07-09T11:17:30Z</time>
      </trkpt>
      <trkpt lat="49.33495" lon="0.97803">
        <ele>102</ele>
        <time>2016-07-09T11:18:26Z</time>
      </trkpt>
      <trkpt lat="49.3348" lon="0.9781">
        <ele>102</ele>
        <time>2016-07-09T11:18:33Z</time>
      </trkpt>
      <trkpt lat="49.33478" lon="0.97833">
        <ele>99</ele>
        <time>2016-07-09T11:18:39Z</time>
      </trkpt>
      <trkpt lat="49.33475" lon="0.97855">
        <ele>99</ele>
        <time>2016-07-09T11:18:46Z</time>
      </trkpt>
      <trkpt lat="49.33473" lon="0.97878">
        <ele>98</ele>
        <time>2016-07-09T11:18:55Z</time>
      </trkpt>
      <trkpt lat="49.33468" lon="0.979">
        <ele>99</ele>
        <time>2016-07-09T11:19:03Z</time>
      </trkpt>
      <trkpt lat="49.33463" lon="0.97923">
        <ele>97</ele>
        <time>2016-07-09T11:19:09Z</time>
      </trkpt>
      <trkpt lat="49.33455" lon="0.97943">
        <ele>96</ele>
        <time>2016-07-09T11:19:14Z</time>
      </trkpt>
      <trkpt lat="49.33445" lon="0.97958">
        <ele>95</ele>
        <time>2016-07-09T11:19:19Z</time>
      </trkpt>
      <trkpt lat="49.33433" lon="0.97975">
        <ele>96</ele>
        <time>2016-07-09T11:19:24Z</time>
      </trkpt>
      <trkpt lat="49.3342" lon="0.9799">
        <ele>95</ele>
        <time>2016-07-09T11:19:30Z</time>
      </trkpt>
      <trkpt lat="49.33413" lon="0.9801">
        <ele>95</ele>
        <time>2016-07-09T11:19:34Z</time>
      </trkpt>
      <trkpt lat="49.3341" lon="0.98035">
        <ele>95</ele>
        <time>2016-07-09T11:19:40Z</time>
      </trkpt>
      <trkpt lat="49.33408" lon="0.98073">
        <ele>104</ele>
        <time>2016-07-09T11:22:43Z</time>
      </trkpt>
      <trkpt lat="49.33405" lon="0.98095">
        <ele>101</ele>
        <time>2016-07-09T11:22:51Z</time>
      </trkpt>
      <trkpt lat="49.33405" lon="0.98118">
        <ele>99</ele>
        <time>2016-07-09T11:22:59Z</time>
      </trkpt>
      <trkpt lat="49.33398" lon="0.98138">
        <ele>98</ele>
        <time>2016-07-09T11:23:04Z</time>
      </trkpt>
      <trkpt lat="49.33393" lon="0.98158">
        <ele>98</ele>
        <time>2016-07-09T11:23:08Z</time>
      </trkpt>
      <trkpt lat="49.33385" lon="0.98183">
        <ele>97</ele>
        <time>2016-07-09T11:23:13Z</time>
      </trkpt>
      <trkpt lat="49.33388" lon="0.98208">
        <ele>97</ele>
        <time>2016-07-09T11:23:19Z</time>
      </trkpt>
      <trkpt lat="49.3339" lon="0.9823">
        <ele>97</ele>
        <time>2016-07-09T11:23:25Z</time>
      </trkpt>
      <trkpt lat="49.33378" lon="0.9824">
        <ele>97</ele>
        <time>2016-07-09T11:23:29Z</time>
      </trkpt>
      <trkpt lat="49.33373" lon="0.98263">
        <ele>99</ele>
        <time>2016-07-09T11:23:36Z</time>
      </trkpt>
      <trkpt lat="49.3336" lon="0.98275">
        <ele>101</ele>
        <time>2016-07-09T11:23:48Z</time>
      </trkpt>
      <trkpt lat="49.33348" lon="0.98285">
        <ele>100</ele>
        <time>2016-07-09T11:23:56Z</time>
      </trkpt>
      <trkpt lat="49.33333" lon="0.98283">
        <ele>98</ele>
        <time>2016-07-09T11:24:03Z</time>
      </trkpt>
      <trkpt lat="49.33318" lon="0.98273">
        <ele>98</ele>
        <time>2016-07-09T11:24:08Z</time>
      </trkpt>
      <trkpt lat="49.33308" lon="0.98253">
        <ele>98</ele>
        <time>2016-07-09T11:24:13Z</time>
      </trkpt>
      <trkpt lat="49.333" lon="0.98225">
        <ele>100</ele>
        <time>2016-07-09T11:24:18Z</time>
      </trkpt>
      <trkpt lat="49.33288" lon="0.98205">
        <ele>100</ele>
        <time>2016-07-09T11:24:22Z</time>
      </trkpt>
      <trkpt lat="49.33275" lon="0.98183">
        <ele>100</ele>
        <time>2016-07-09T11:24:28Z</time>
      </trkpt>
      <trkpt lat="49.33253" lon="0.98153">
        <ele>83</ele>
        <time>2016-07-09T11:25:03Z</time>
      </trkpt>
      <trkpt lat="49.33243" lon="0.98138">
        <ele>87</ele>
        <time>2016-07-09T11:25:09Z</time>
      </trkpt>
      <trkpt lat="49.33235" lon="0.98118">
        <ele>89</ele>
        <time>2016-07-09T11:25:15Z</time>
      </trkpt>
      <trkpt lat="49.33225" lon="0.981">
        <ele>90</ele>
        <time>2016-07-09T11:25:19Z</time>
      </trkpt>
      <trkpt lat="49.3321" lon="0.98095">
        <ele>91</ele>
        <time>2016-07-09T11:25:24Z</time>
      </trkpt>
      <trkpt lat="49.33193" lon="0.98093">
        <ele>91</ele>
        <time>2016-07-09T11:25:29Z</time>
      </trkpt>
      <trkpt lat="49.33185" lon="0.9812">
        <ele>106</ele>
        <time>2016-07-09T11:26:48Z</time>
      </trkpt>
      <trkpt lat="49.33193" lon="0.9814">
        <ele>105</ele>
        <time>2016-07-09T11:26:57Z</time>
      </trkpt>
      <trkpt lat="49.332" lon="0.9816">
        <ele>105</ele>
        <time>2016-07-09T11:27:05Z</time>
      </trkpt>
      <trkpt lat="49.33205" lon="0.9818">
        <ele>106</ele>
        <time>2016-07-09T11:27:11Z</time>
      </trkpt>
      <trkpt lat="49.33213" lon="0.98198">
        <ele>106</ele>
        <time>2016-07-09T11:27:17Z</time>
      </trkpt>
      <trkpt lat="49.3322" lon="0.98215">
        <ele>106</ele>
        <time>2016-07-09T11:27:22Z</time>
      </trkpt>
      <trkpt lat="49.33225" lon="0.9824">
        <ele>104</ele>
        <time>2016-07-09T11:27:27Z</time>
      </trkpt>
      <trkpt lat="49.33233" lon="0.98268">
        <ele>108</ele>
        <time>2016-07-09T11:27:34Z</time>
      </trkpt>
      <trkpt lat="49.33235" lon="0.98293">
        <ele>110</ele>
        <time>2016-07-09T11:27:40Z</time>
      </trkpt>
      <trkpt lat="49.33243" lon="0.9831">
        <ele>111</ele>
        <time>2016-07-09T11:27:45Z</time>
      </trkpt>
      <trkpt lat="49.33235" lon="0.98293">
        <ele>116</ele>
        <time>2016-07-09T11:29:49Z</time>
      </trkpt>
      <trkpt lat="49.33225" lon="0.98278">
        <ele>117</ele>
        <time>2016-07-09T11:29:58Z</time>
      </trkpt>
      <trkpt lat="49.3321" lon="0.98273">
        <ele>120</ele>
        <time>2016-07-09T11:31:00Z</time>
      </trkpt>
      <trkpt lat="49.33188" lon="0.98248">
        <ele>118</ele>
        <time>2016-07-09T11:32:11Z</time>
      </trkpt>
      <trkpt lat="49.33195" lon="0.9823">
        <ele>117</ele>
        <time>2016-07-09T11:32:18Z</time>
      </trkpt>
      <trkpt lat="49.3321" lon="0.9822">
        <ele>110</ele>
        <time>2016-07-09T11:33:02Z</time>
      </trkpt>
      <trkpt lat="49.3321" lon="0.98198">
        <ele>109</ele>
        <time>2016-07-09T11:33:08Z</time>
      </trkpt>
      <trkpt lat="49.33208" lon="0.98175">
        <ele>108</ele>
        <time>2016-07-09T11:33:13Z</time>
      </trkpt>
      <trkpt lat="49.332" lon="0.98155">
        <ele>108</ele>
        <time>2016-07-09T11:33:17Z</time>
      </trkpt>
      <trkpt lat="49.33193" lon="0.98133">
        <ele>107</ele>
        <time>2016-07-09T11:33:21Z</time>
      </trkpt>
      <trkpt lat="49.33183" lon="0.9811">
        <ele>106</ele>
        <time>2016-07-09T11:33:24Z</time>
      </trkpt>
      <trkpt lat="49.33173" lon="0.98083">
        <ele>104</ele>
        <time>2016-07-09T11:33:27Z</time>
      </trkpt>
      <trkpt lat="49.33165" lon="0.98058">
        <ele>103</ele>
        <time>2016-07-09T11:33:30Z</time>
      </trkpt>
      <trkpt lat="49.33158" lon="0.98033">
        <ele>102</ele>
        <time>2016-07-09T11:33:33Z</time>
      </trkpt>
      <trkpt lat="49.3315" lon="0.98008">
        <ele>101</ele>
        <time>2016-07-09T11:33:36Z</time>
      </trkpt>
      <trkpt lat="49.33143" lon="0.97988">
        <ele>100</ele>
        <time>2016-07-09T11:33:40Z</time>
      </trkpt>
      <trkpt lat="49.33133" lon="0.97973">
        <ele>99</ele>
        <time>2016-07-09T11:33:45Z</time>
      </trkpt>
      <trkpt lat="49.33118" lon="0.9797">
        <ele>98</ele>
        <time>2016-07-09T11:33:53Z</time>
      </trkpt>
      <trkpt lat="49.33108" lon="0.97985">
        <ele>97</ele>
        <time>2016-07-09T11:34:15Z</time>
      </trkpt>
      <trkpt lat="49.33113" lon="0.98005">
        <ele>95</ele>
        <time>2016-07-09T11:34:21Z</time>
      </trkpt>
      <trkpt lat="49.33113" lon="0.98028">
        <ele>96</ele>
        <time>2016-07-09T11:34:27Z</time>
      </trkpt>
      <trkpt lat="49.33118" lon="0.98048">
        <ele>98</ele>
        <time>2016-07-09T11:34:34Z</time>
      </trkpt>
      <trkpt lat="49.33113" lon="0.9807">
        <ele>102</ele>
        <time>2016-07-09T11:34:43Z</time>
      </trkpt>
      <trkpt lat="49.331" lon="0.98058">
        <ele>108</ele>
        <time>2016-07-09T11:36:34Z</time>
      </trkpt>
      <trkpt lat="49.33085" lon="0.98048">
        <ele>107</ele>
        <time>2016-07-09T11:36:41Z</time>
      </trkpt>
      <trkpt lat="49.33073" lon="0.9806">
        <ele>104</ele>
        <time>2016-07-09T11:36:47Z</time>
      </trkpt>
      <trkpt lat="49.33065" lon="0.9808">
        <ele>105</ele>
        <time>2016-07-09T11:37:00Z</time>
      </trkpt>
      <trkpt lat="49.33055" lon="0.98095">
        <ele>104</ele>
        <time>2016-07-09T11:37:06Z</time>
      </trkpt>
      <trkpt lat="49.33048" lon="0.98115">
        <ele>102</ele>
        <time>2016-07-09T11:37:11Z</time>
      </trkpt>
      <trkpt lat="49.33043" lon="0.98135">
        <ele>102</ele>
        <time>2016-07-09T11:37:18Z</time>
      </trkpt>
      <trkpt lat="49.3304" lon="0.98158">
        <ele>102</ele>
        <time>2016-07-09T11:37:24Z</time>
      </trkpt>
      <trkpt lat="49.33033" lon="0.98178">
        <ele>102</ele>
        <time>2016-07-09T11:37:30Z</time>
      </trkpt>
      <trkpt lat="49.33025" lon="0.98195">
        <ele>104</ele>
        <time>2016-07-09T11:37:38Z</time>
      </trkpt>
      <trkpt lat="49.33025" lon="0.98218">
        <ele>104</ele>
        <time>2016-07-09T11:37:44Z</time>
      </trkpt>
      <trkpt lat="49.3303" lon="0.98245">
        <ele>110</ele>
        <time>2016-07-09T11:39:01Z</time>
      </trkpt>
      <trkpt lat="49.3303" lon="0.98268">
        <ele>111</ele>
        <time>2016-07-09T11:39:09Z</time>
      </trkpt>
      <trkpt lat="49.3303" lon="0.9829">
        <ele>112</ele>
        <time>2016-07-09T11:39:16Z</time>
      </trkpt>
      <trkpt lat="49.33035" lon="0.98313">
        <ele>113</ele>
        <time>2016-07-09T11:39:22Z</time>
      </trkpt>
      <trkpt lat="49.33045" lon="0.98328">
        <ele>114</ele>
        <time>2016-07-09T11:39:29Z</time>
      </trkpt>
      <trkpt lat="49.33055" lon="0.98345">
        <ele>115</ele>
        <time>2016-07-09T11:39:38Z</time>
      </trkpt>
      <trkpt lat="49.33063" lon="0.98373">
        <ele>120</ele>
        <time>2016-07-09T11:40:17Z</time>
      </trkpt>
      <trkpt lat="49.33075" lon="0.98383">
        <ele>120</ele>
        <time>2016-07-09T11:40:27Z</time>
      </trkpt>
      <trkpt lat="49.33075" lon="0.98413">
        <ele>131</ele>
        <time>2016-07-09T11:41:45Z</time>
      </trkpt>
      <trkpt lat="49.33083" lon="0.9843">
        <ele>128</ele>
        <time>2016-07-09T11:41:51Z</time>
      </trkpt>
      <trkpt lat="49.33095" lon="0.9844">
        <ele>125</ele>
        <time>2016-07-09T11:42:00Z</time>
      </trkpt>
      <trkpt lat="49.33105" lon="0.98455">
        <ele>122</ele>
        <time>2016-07-09T11:42:31Z</time>
      </trkpt>
      <trkpt lat="49.331" lon="0.9848">
        <ele>123</ele>
        <time>2016-07-09T11:42:38Z</time>
      </trkpt>
      <trkpt lat="49.33093" lon="0.985">
        <ele>122</ele>
        <time>2016-07-09T11:42:43Z</time>
      </trkpt>
      <trkpt lat="49.33088" lon="0.98523">
        <ele>120</ele>
        <time>2016-07-09T11:42:47Z</time>
      </trkpt>
      <trkpt lat="49.33083" lon="0.98545">
        <ele>119</ele>
        <time>2016-07-09T11:42:52Z</time>
      </trkpt>
      <trkpt lat="49.33078" lon="0.98568">
        <ele>119</ele>
        <time>2016-07-09T11:42:57Z</time>
      </trkpt>
      <trkpt lat="49.33075" lon="0.98593">
        <ele>121</ele>
        <time>2016-07-09T11:43:03Z</time>
      </trkpt>
      <trkpt lat="49.33075" lon="0.98615">
        <ele>121</ele>
        <time>2016-07-09T11:43:09Z</time>
      </trkpt>
      <trkpt lat="49.33078" lon="0.9864">
        <ele>119</ele>
        <time>2016-07-09T11:43:15Z</time>
      </trkpt>
      <trkpt lat="49.33083" lon="0.9866">
        <ele>121</ele>
        <time>2016-07-09T11:43:21Z</time>
      </trkpt>
      <trkpt lat="49.33075" lon="0.9868">
        <ele>120</ele>
        <time>2016-07-09T11:43:27Z</time>
      </trkpt>
      <trkpt lat="49.3308" lon="0.98703">
        <ele>119</ele>
        <time>2016-07-09T11:43:32Z</time>
      </trkpt>
      <trkpt lat="49.33075" lon="0.98723">
        <ele>120</ele>
        <time>2016-07-09T11:43:37Z</time>
      </trkpt>
      <trkpt lat="49.33065" lon="0.98738">
        <ele>119</ele>
        <time>2016-07-09T11:43:43Z</time>
      </trkpt>
      <trkpt lat="49.33043" lon="0.98753">
        <ele>120</ele>
        <time>2016-07-09T11:44:00Z</time>
      </trkpt>
      <trkpt lat="49.33025" lon="0.98768">
        <ele>118</ele>
        <time>2016-07-09T11:44:08Z</time>
      </trkpt>
      <trkpt lat="49.3301" lon="0.9878">
        <ele>119</ele>
        <time>2016-07-09T11:44:14Z</time>
      </trkpt>
      <trkpt lat="49.3299" lon="0.98798">
        <ele>118</ele>
        <time>2016-07-09T11:44:21Z</time>
      </trkpt>
      <trkpt lat="49.32978" lon="0.98808">
        <ele>118</ele>
        <time>2016-07-09T11:44:25Z</time>
      </trkpt>
      <trkpt lat="49.32963" lon="0.98818">
        <ele>119</ele>
        <time>2016-07-09T11:44:30Z</time>
      </trkpt>
      <trkpt lat="49.32948" lon="0.98823">
        <ele>122</ele>
        <time>2016-07-09T11:44:37Z</time>
      </trkpt>
      <trkpt lat="49.3294" lon="0.98803">
        <ele>133</ele>
        <time>2016-07-09T11:46:04Z</time>
      </trkpt>
      <trkpt lat="49.32935" lon="0.9878">
        <ele>133</ele>
        <time>2016-07-09T11:46:09Z</time>
      </trkpt>
      <trkpt lat="49.32928" lon="0.9876">
        <ele>133</ele>
        <time>2016-07-09T11:46:13Z</time>
      </trkpt>
      <trkpt lat="49.32923" lon="0.9874">
        <ele>134</ele>
        <time>2016-07-09T11:46:17Z</time>
      </trkpt>
      <trkpt lat="49.32915" lon="0.9872">
        <ele>134</ele>
        <time>2016-07-09T11:46:21Z</time>
      </trkpt>
      <trkpt lat="49.32908" lon="0.987">
        <ele>135</ele>
        <time>2016-07-09T11:46:25Z</time>
      </trkpt>
      <trkpt lat="49.32898" lon="0.9868">
        <ele>135</ele>
        <time>2016-07-09T11:46:29Z</time>
      </trkpt>
      <trkpt lat="49.32893" lon="0.9866">
        <ele>136</ele>
        <time>2016-07-09T11:46:32Z</time>
      </trkpt>
      <trkpt lat="49.32885" lon="0.9864">
        <ele>136</ele>
        <time>2016-07-09T11:46:35Z</time>
      </trkpt>
      <trkpt lat="49.32878" lon="0.98623">
        <ele>135</ele>
        <time>2016-07-09T11:46:38Z</time>
      </trkpt>
      <trkpt lat="49.32868" lon="0.98608">
        <ele>134</ele>
        <time>2016-07-09T11:46:41Z</time>
      </trkpt>
      <trkpt lat="49.32855" lon="0.98593">
        <ele>135</ele>
        <time>2016-07-09T11:46:44Z</time>
      </trkpt>
      <trkpt lat="49.32843" lon="0.98583">
        <ele>134</ele>
        <time>2016-07-09T11:46:49Z</time>
      </trkpt>
      <trkpt lat="49.32828" lon="0.98593">
        <ele>133</ele>
        <time>2016-07-09T11:46:56Z</time>
      </trkpt>
      <trkpt lat="49.3281" lon="0.98603">
        <ele>132</ele>
        <time>2016-07-09T11:47:01Z</time>
      </trkpt>
      <trkpt lat="49.32793" lon="0.98618">
        <ele>131</ele>
        <time>2016-07-09T11:47:05Z</time>
      </trkpt>
      <trkpt lat="49.3278" lon="0.98628">
        <ele>130</ele>
        <time>2016-07-09T11:47:08Z</time>
      </trkpt>
      <trkpt lat="49.32765" lon="0.9864">
        <ele>129</ele>
        <time>2016-07-09T11:47:11Z</time>
      </trkpt>
      <trkpt lat="49.3275" lon="0.98653">
        <ele>128</ele>
        <time>2016-07-09T11:47:14Z</time>
      </trkpt>
      <trkpt lat="49.32735" lon="0.98663">
        <ele>128</ele>
        <time>2016-07-09T11:47:17Z</time>
      </trkpt>
      <trkpt lat="49.3272" lon="0.98678">
        <ele>128</ele>
        <time>2016-07-09T11:47:20Z</time>
      </trkpt>
      <trkpt lat="49.32703" lon="0.9869">
        <ele>128</ele>
        <time>2016-07-09T11:47:23Z</time>
      </trkpt>
      <trkpt lat="49.32685" lon="0.98703">
        <ele>128</ele>
        <time>2016-07-09T11:47:26Z</time>
      </trkpt>
      <trkpt lat="49.3264" lon="0.98733">
        <ele>128</ele>
        <time>2016-07-09T11:47:34Z</time>
      </trkpt>
      <trkpt lat="49.32623" lon="0.9875">
        <ele>127</ele>
        <time>2016-07-09T11:47:37Z</time>
      </trkpt>
      <trkpt lat="49.326" lon="0.9877">
        <ele>127</ele>
        <time>2016-07-09T11:47:42Z</time>
      </trkpt>
      <trkpt lat="49.32575" lon="0.98788">
        <ele>127</ele>
        <time>2016-07-09T11:47:47Z</time>
      </trkpt>
      <trkpt lat="49.32555" lon="0.988">
        <ele>126</ele>
        <time>2016-07-09T11:47:50Z</time>
      </trkpt>
      <trkpt lat="49.3254" lon="0.98813">
        <ele>125</ele>
        <time>2016-07-09T11:47:53Z</time>
      </trkpt>
      <trkpt lat="49.3252" lon="0.9883">
        <ele>123</ele>
        <time>2016-07-09T11:47:56Z</time>
      </trkpt>
      <trkpt lat="49.32495" lon="0.98848">
        <ele>120</ele>
        <time>2016-07-09T11:48:00Z</time>
      </trkpt>
      <trkpt lat="49.32483" lon="0.98858">
        <ele>119</ele>
        <time>2016-07-09T11:48:04Z</time>
      </trkpt>
      <trkpt lat="49.32475" lon="0.9884">
        <ele>114</ele>
        <time>2016-07-09T11:48:22Z</time>
      </trkpt>
      <trkpt lat="49.32465" lon="0.98825">
        <ele>114</ele>
        <time>2016-07-09T11:48:25Z</time>
      </trkpt>
      <trkpt lat="49.32453" lon="0.98798">
        <ele>113</ele>
        <time>2016-07-09T11:48:30Z</time>
      </trkpt>
      <trkpt lat="49.32445" lon="0.98775">
        <ele>112</ele>
        <time>2016-07-09T11:48:34Z</time>
      </trkpt>
      <trkpt lat="49.32435" lon="0.98753">
        <ele>111</ele>
        <time>2016-07-09T11:48:38Z</time>
      </trkpt>
      <trkpt lat="49.32428" lon="0.9872">
        <ele>107</ele>
        <time>2016-07-09T11:48:43Z</time>
      </trkpt>
      <trkpt lat="49.32418" lon="0.987">
        <ele>105</ele>
        <time>2016-07-09T11:48:46Z</time>
      </trkpt>
      <trkpt lat="49.32413" lon="0.98678">
        <ele>102</ele>
        <time>2016-07-09T11:48:50Z</time>
      </trkpt>
      <trkpt lat="49.32405" lon="0.98655">
        <ele>101</ele>
        <time>2016-07-09T11:48:53Z</time>
      </trkpt>
      <trkpt lat="49.32398" lon="0.98635">
        <ele>99</ele>
        <time>2016-07-09T11:48:56Z</time>
      </trkpt>
      <trkpt lat="49.32385" lon="0.9865">
        <ele>91</ele>
        <time>2016-07-09T11:49:14Z</time>
      </trkpt>
      <trkpt lat="49.32368" lon="0.98673">
        <ele>89</ele>
        <time>2016-07-09T11:49:20Z</time>
      </trkpt>
      <trkpt lat="49.32355" lon="0.98685">
        <ele>88</ele>
        <time>2016-07-09T11:49:23Z</time>
      </trkpt>
      <trkpt lat="49.32343" lon="0.98698">
        <ele>88</ele>
        <time>2016-07-09T11:49:26Z</time>
      </trkpt>
      <trkpt lat="49.3233" lon="0.98715">
        <ele>88</ele>
        <time>2016-07-09T11:49:30Z</time>
      </trkpt>
      <trkpt lat="49.3232" lon="0.98735">
        <ele>86</ele>
        <time>2016-07-09T11:49:34Z</time>
      </trkpt>
      <trkpt lat="49.3232" lon="0.98758">
        <ele>84</ele>
        <time>2016-07-09T11:49:37Z</time>
      </trkpt>
      <trkpt lat="49.32323" lon="0.9878">
        <ele>84</ele>
        <time>2016-07-09T11:49:40Z</time>
      </trkpt>
      <trkpt lat="49.3232" lon="0.98815">
        <ele>84</ele>
        <time>2016-07-09T11:49:46Z</time>
      </trkpt>
      <trkpt lat="49.32305" lon="0.98818">
        <ele>83</ele>
        <time>2016-07-09T11:49:53Z</time>
      </trkpt>
      <trkpt lat="49.32295" lon="0.988">
        <ele>84</ele>
        <time>2016-07-09T11:49:59Z</time>
      </trkpt>
      <trkpt lat="49.3228" lon="0.9879">
        <ele>83</ele>
        <time>2016-07-09T11:50:03Z</time>
      </trkpt>
      <trkpt lat="49.32265" lon="0.98788">
        <ele>82</ele>
        <time>2016-07-09T11:50:07Z</time>
      </trkpt>
      <trkpt lat="49.3225" lon="0.9878">
        <ele>80</ele>
        <time>2016-07-09T11:50:12Z</time>
      </trkpt>
      <trkpt lat="49.32235" lon="0.98778">
        <ele>78</ele>
        <time>2016-07-09T11:50:16Z</time>
      </trkpt>
      <trkpt lat="49.32215" lon="0.98778">
        <ele>66</ele>
        <time>2016-07-09T11:50:33Z</time>
      </trkpt>
      <trkpt lat="49.32203" lon="0.9879">
        <ele>63</ele>
        <time>2016-07-09T11:50:40Z</time>
      </trkpt>
      <trkpt lat="49.32193" lon="0.98808">
        <ele>61</ele>
        <time>2016-07-09T11:50:45Z</time>
      </trkpt>
      <trkpt lat="49.32193" lon="0.98833">
        <ele>59</ele>
        <time>2016-07-09T11:50:52Z</time>
      </trkpt>
      <trkpt lat="49.32183" lon="0.98853">
        <ele>57</ele>
        <time>2016-07-09T11:50:58Z</time>
      </trkpt>
      <trkpt lat="49.32175" lon="0.98875">
        <ele>54</ele>
        <time>2016-07-09T11:51:02Z</time>
      </trkpt>
      <trkpt lat="49.32173" lon="0.989">
        <ele>53</ele>
        <time>2016-07-09T11:51:08Z</time>
      </trkpt>
      <trkpt lat="49.3217" lon="0.98923">
        <ele>52</ele>
        <time>2016-07-09T11:51:15Z</time>
      </trkpt>
      <trkpt lat="49.3217" lon="0.98948">
        <ele>53</ele>
        <time>2016-07-09T11:51:26Z</time>
      </trkpt>
      <trkpt lat="49.32158" lon="0.9896">
        <ele>55</ele>
        <time>2016-07-09T11:51:35Z</time>
      </trkpt>
      <trkpt lat="49.32158" lon="0.98935">
        <ele>56</ele>
        <time>2016-07-09T11:51:56Z</time>
      </trkpt>
      <trkpt lat="49.3216" lon="0.98908">
        <ele>55</ele>
        <time>2016-07-09T11:52:00Z</time>
      </trkpt>
      <trkpt lat="49.3216" lon="0.98885">
        <ele>54</ele>
        <time>2016-07-09T11:52:03Z</time>
      </trkpt>
      <trkpt lat="49.32163" lon="0.98858">
        <ele>52</ele>
        <time>2016-07-09T11:52:07Z</time>
      </trkpt>
      <trkpt lat="49.32168" lon="0.98833">
        <ele>51</ele>
        <time>2016-07-09T11:52:11Z</time>
      </trkpt>
      <trkpt lat="49.32175" lon="0.9881">
        <ele>51</ele>
        <time>2016-07-09T11:52:15Z</time>
      </trkpt>
      <trkpt lat="49.3218" lon="0.9879">
        <ele>50</ele>
        <time>2016-07-09T11:52:19Z</time>
      </trkpt>
      <trkpt lat="49.32185" lon="0.98768">
        <ele>49</ele>
        <time>2016-07-09T11:52:23Z</time>
      </trkpt>
      <trkpt lat="49.32193" lon="0.9875">
        <ele>48</ele>
        <time>2016-07-09T11:52:27Z</time>
      </trkpt>
      <trkpt lat="49.32208" lon="0.9874">
        <ele>50</ele>
        <time>2016-07-09T11:52:32Z</time>
      </trkpt>
      <trkpt lat="49.32225" lon="0.98743">
        <ele>51</ele>
        <time>2016-07-09T11:52:37Z</time>
      </trkpt>
      <trkpt lat="49.32253" lon="0.98725">
        <ele>58</ele>
        <time>2016-07-09T11:52:54Z</time>
      </trkpt>
      <trkpt lat="49.32235" lon="0.98698">
        <ele>61</ele>
        <time>2016-07-09T11:53:47Z</time>
      </trkpt>
      <trkpt lat="49.32215" lon="0.98698">
        <ele>58</ele>
        <time>2016-07-09T11:54:08Z</time>
      </trkpt>
      <trkpt lat="49.322" lon="0.98693">
        <ele>57</ele>
        <time>2016-07-09T11:54:12Z</time>
      </trkpt>
      <trkpt lat="49.32185" lon="0.98698">
        <ele>53</ele>
        <time>2016-07-09T11:54:17Z</time>
      </trkpt>
      <trkpt lat="49.32173" lon="0.9871">
        <ele>51</ele>
        <time>2016-07-09T11:54:21Z</time>
      </trkpt>
      <trkpt lat="49.3216" lon="0.9873">
        <ele>46</ele>
        <time>2016-07-09T11:54:26Z</time>
      </trkpt>
      <trkpt lat="49.32153" lon="0.98753">
        <ele>43</ele>
        <time>2016-07-09T11:54:30Z</time>
      </trkpt>
      <trkpt lat="49.3215" lon="0.98775">
        <ele>40</ele>
        <time>2016-07-09T11:54:34Z</time>
      </trkpt>
      <trkpt lat="49.32148" lon="0.98803">
        <ele>39</ele>
        <time>2016-07-09T11:54:39Z</time>
      </trkpt>
      <trkpt lat="49.32145" lon="0.98825">
        <ele>36</ele>
        <time>2016-07-09T11:54:45Z</time>
      </trkpt>
      <trkpt lat="49.3214" lon="0.9885">
        <ele>35</ele>
        <time>2016-07-09T11:54:51Z</time>
      </trkpt>
      <trkpt lat="49.32133" lon="0.98873">
        <ele>33</ele>
        <time>2016-07-09T11:54:56Z</time>
      </trkpt>
      <trkpt lat="49.32128" lon="0.98893">
        <ele>32</ele>
        <time>2016-07-09T11:55:00Z</time>
      </trkpt>
      <trkpt lat="49.32125" lon="0.98915">
        <ele>31</ele>
        <time>2016-07-09T11:55:05Z</time>
      </trkpt>
      <trkpt lat="49.32118" lon="0.98933">
        <ele>33</ele>
        <time>2016-07-09T11:55:10Z</time>
      </trkpt>
      <trkpt lat="49.32113" lon="0.98958">
        <ele>32</ele>
        <time>2016-07-09T11:55:15Z</time>
      </trkpt>
      <trkpt lat="49.32105" lon="0.9898">
        <ele>31</ele>
        <time>2016-07-09T11:55:21Z</time>
      </trkpt>
      <trkpt lat="49.32098" lon="0.99">
        <ele>31</ele>
        <time>2016-07-09T11:55:26Z</time>
      </trkpt>
      <trkpt lat="49.32088" lon="0.99015">
        <ele>31</ele>
        <time>2016-07-09T11:55:32Z</time>
      </trkpt>
      <trkpt lat="49.32078" lon="0.9903">
        <ele>32</ele>
        <time>2016-07-09T11:55:37Z</time>
      </trkpt>
      <trkpt lat="49.32068" lon="0.99045">
        <ele>33</ele>
        <time>2016-07-09T11:55:41Z</time>
      </trkpt>
      <trkpt lat="49.32055" lon="0.99055">
        <ele>31</ele>
        <time>2016-07-09T11:55:45Z</time>
      </trkpt>
      <trkpt lat="49.3204" lon="0.99065">
        <ele>24</ele>
        <time>2016-07-09T11:55:51Z</time>
      </trkpt>
      <trkpt lat="49.32028" lon="0.9909">
        <ele>17</ele>
        <time>2016-07-09T11:56:08Z</time>
      </trkpt>
      <trkpt lat="49.32018" lon="0.9911">
        <ele>15</ele>
        <time>2016-07-09T11:56:14Z</time>
      </trkpt>
      <trkpt lat="49.32008" lon="0.9913">
        <ele>13</ele>
        <time>2016-07-09T11:56:19Z</time>
      </trkpt>
      <trkpt lat="49.31998" lon="0.99148">
        <ele>13</ele>
        <time>2016-07-09T11:56:23Z</time>
      </trkpt>
      <trkpt lat="49.31988" lon="0.99168">
        <ele>12</ele>
        <time>2016-07-09T11:56:28Z</time>
      </trkpt>
      <trkpt lat="49.3197" lon="0.99203">
        <ele>10</ele>
        <time>2016-07-09T11:56:35Z</time>
      </trkpt>
      <trkpt lat="49.31958" lon="0.99223">
        <ele>11</ele>
        <time>2016-07-09T11:56:40Z</time>
      </trkpt>
      <trkpt lat="49.3195" lon="0.9924">
        <ele>11</ele>
        <time>2016-07-09T11:56:45Z</time>
      </trkpt>
      <trkpt lat="49.3194" lon="0.9926">
        <ele>10</ele>
        <time>2016-07-09T11:56:50Z</time>
      </trkpt>
      <trkpt lat="49.31933" lon="0.9928">
        <ele>9</ele>
        <time>2016-07-09T11:56:55Z</time>
      </trkpt>
      <trkpt lat="49.31923" lon="0.99308">
        <ele>9</ele>
        <time>2016-07-09T11:57:01Z</time>
      </trkpt>
      <trkpt lat="49.31915" lon="0.99325">
        <ele>10</ele>
        <time>2016-07-09T11:57:05Z</time>
      </trkpt>
      <trkpt lat="49.31908" lon="0.99345">
        <ele>10</ele>
        <time>2016-07-09T11:57:10Z</time>
      </trkpt>
      <trkpt lat="49.319" lon="0.99368">
        <ele>12</ele>
        <time>2016-07-09T11:57:16Z</time>
      </trkpt>
      <trkpt lat="49.31895" lon="0.9939">
        <ele>13</ele>
        <time>2016-07-09T11:57:22Z</time>
      </trkpt>
      <trkpt lat="49.31883" lon="0.99403">
        <ele>12</ele>
        <time>2016-07-09T11:57:27Z</time>
      </trkpt>
      <trkpt lat="49.31865" lon="0.99403">
        <ele>13</ele>
        <time>2016-07-09T11:57:32Z</time>
      </trkpt>
      <trkpt lat="49.31853" lon="0.99418">
        <ele>13</ele>
        <time>2016-07-09T11:57:36Z</time>
      </trkpt>
      <trkpt lat="49.3184" lon="0.99428">
        <ele>12</ele>
        <time>2016-07-09T11:57:39Z</time>
      </trkpt>
      <trkpt lat="49.3183" lon="0.99443">
        <ele>12</ele>
        <time>2016-07-09T11:57:42Z</time>
      </trkpt>
    </trkseg>
  </trk>
</gpx>